M I D A S
Marine Information and Data Acquisition System
Tripno 2287 of the Zeeleeuw from 2012-04-11 06:49:18 to 2012-04-11 14:26:17
Back to CruiseResearch ActivitiesStationsMapUnderway DataData graphs

EquipmentUnitsComment
TimeDGPSUTC
LatitudeDGPSDM.mWGS84
LongitudeDGPSDM.mWGS84
TemperatureSBE03/SBE38deg celciusITS90
ConductivitySBE21S/mITS90
SalinitySBE21 Practical Salinity Units
ChlorophylAChelsea fluorimeterg/lCalibrated in Aceton
Missing or incorrect values are displayed as -999
Sea surface data collected by the RV Zeeleeuw from 2012-04-11 06:29:50 to 2012-04-11 14:31:55
                                                                                    Next 1000 lines
Time Latitude Longitude Temperature Conductivity Salinity ChlorophylA
2012-04-11 06:30:00 51°13.631 2°56.022 16.2794 3.662792 24.693325 -2.458615
2012-04-11 06:30:05 51°13.633 2°56.021 16.2783 3.664552 24.706901 -2.458615
2012-04-11 06:30:11 51°13.634 2°56.02 16.2794 3.664552 24.706901 -2.458615
2012-04-11 06:30:16 51°13.634 2°56.02 16.2791 3.664552 24.706901 -2.458615
2012-04-11 06:30:20 51°13.634 2°56.021 16.2799 3.664967 24.709995 -2.458615
2012-04-11 06:30:25 51°13.634 2°56.021 16.2794 3.662481 24.691856 -2.458615
2012-04-11 06:30:30 51°13.635 2°56.02 16.2801 3.663827 24.702338 -2.458615
2012-04-11 06:30:35 51°13.635 2°56.02 16.2786 3.663206 24.697697 -2.458615
2012-04-11 06:30:40 51°13.635 2°56.02 16.2794 3.662274 24.690735 -2.458615
2012-04-11 06:30:45 51°13.635 2°56.02 16.2824 3.662274 24.690735 -2.458615
2012-04-11 06:30:51 51°13.636 2°56.019 16.2845 3.664035 24.704311 -2.458615
2012-04-11 06:30:56 51°13.636 2°56.019 16.2846 3.660617 24.679211 -2.458615
2012-04-11 06:31:00 51°13.636 2°56.019 16.2853 3.662688 24.694681 -2.458615
2012-04-11 06:31:05 51°13.635 2°56.019 16.284 3.662481 24.69356 -2.458615
2012-04-11 06:31:11 51°13.635 2°56.019 16.2847 3.662067 24.690466 -2.458615
2012-04-11 06:31:16 51°13.636 2°56.019 16.286 3.662067 24.690466 -2.458615
2012-04-11 06:31:20 51°13.636 2°56.019 16.286 3.662274 24.692013 -2.458615
2012-04-11 06:31:25 51°13.636 2°56.019 16.2858 3.663413 24.700948 -2.458615
2012-04-11 06:31:30 51°13.636 2°56.019 16.2851 3.662585 24.695185 -2.458615
2012-04-11 06:31:35 51°13.636 2°56.019 16.2847 3.660306 24.678167 -2.458615
2012-04-11 06:31:40 51°13.636 2°56.019 16.284 3.662274 24.692865 -2.458615
2012-04-11 06:31:46 51°13.636 2°56.019 16.2822 3.662274 24.692865 -2.458615
2012-04-11 06:31:50 51°13.637 2°56.019 16.2809 3.661446 24.687102 -2.458615
2012-04-11 06:31:56 51°13.637 2°56.019 16.281 3.659271 24.670858 -2.458615
2012-04-11 06:32:01 51°13.637 2°56.019 16.2799 3.660514 24.68014 -2.458615
2012-04-11 06:32:05 51°13.637 2°56.019 16.2813 3.661549 24.688301 -2.458615
2012-04-11 06:32:10 51°13.636 2°56.02 16.2823 3.662171 24.692943 -2.458615
2012-04-11 06:32:15 51°13.636 2°56.02 16.2851 3.662171 24.692943 -2.458615
2012-04-11 06:32:20 51°13.636 2°56.02 16.2863 3.660721 24.682539 -2.458615
2012-04-11 06:32:25 51°13.637 2°56.019 16.286 3.66041 24.680218 -2.458615
2012-04-11 06:32:30 51°13.637 2°56.019 16.285 3.661549 24.688727 -2.458615
2012-04-11 06:32:35 51°13.637 2°56.019 16.2837 3.661963 24.691822 -2.458615
2012-04-11 06:32:41 51°13.637 2°56.018 16.2854 3.661549 24.689153 -2.458615
2012-04-11 06:32:46 51°13.637 2°56.019 16.2844 3.661549 24.689153 -2.458615
2012-04-11 06:32:51 51°13.637 2°56.019 16.2844 3.659064 24.671013 -2.458615
2012-04-11 06:32:55 51°13.637 2°56.019 16.285 3.660721 24.68339 -2.458615
2012-04-11 06:33:00 51°13.637 2°56.019 16.2844 3.660203 24.679522 -2.458615
2012-04-11 06:33:05 51°13.637 2°56.019 16.2849 3.658442 24.666372 -2.458615
2012-04-11 06:33:10 51°13.637 2°56.019 16.285 3.659685 24.67608 -2.458615
2012-04-11 06:33:16 51°13.637 2°56.019 16.2848 3.659685 24.67608 -2.458615
2012-04-11 06:33:20 51°13.637 2°56.019 16.2839 3.658028 24.663704 -2.458615
2012-04-11 06:33:26 51°13.636 2°56.02 16.2813 3.660514 24.682695 -2.458615
2012-04-11 06:33:31 51°13.636 2°56.019 16.282 3.658442 24.667223 -2.458615
2012-04-11 06:33:36 51°13.636 2°56.02 16.2832 3.658857 24.670317 -2.458615
2012-04-11 06:33:40 51°13.636 2°56.02 16.2817 3.659582 24.676158 -2.458615
2012-04-11 06:33:45 51°13.636 2°56.019 16.2829 3.659582 24.676158 -2.458615
2012-04-11 06:33:50 51°13.636 2°56.019 16.2833 3.659374 24.674611 -2.458615
2012-04-11 06:33:55 51°13.636 2°56.02 16.2841 3.658857 24.671169 -2.458615
2012-04-11 06:34:00 51°13.636 2°56.02 16.2874 3.658235 24.666527 -2.458615
2012-04-11 06:34:05 51°13.636 2°56.019 16.2899 3.656889 24.656897 -2.458615
2012-04-11 06:34:11 51°13.636 2°56.019 16.293 3.658028 24.665406 -2.458615
2012-04-11 06:34:16 51°13.636 2°56.019 16.2905 3.658028 24.665406 -2.458615
2012-04-11 06:34:21 51°13.636 2°56.019 16.2882 3.656578 24.655001 -2.458615
2012-04-11 06:34:25 51°13.636 2°56.019 16.2896 3.658442 24.668926 -2.458615
2012-04-11 06:34:30 51°13.636 2°56.019 16.2917 3.656268 24.652681 -2.458615
2012-04-11 06:34:35 51°13.635 2°56.019 16.2938 3.657407 24.66119 -2.458615
2012-04-11 06:34:41 51°13.636 2°56.019 16.2948 3.6572 24.660068 -2.458615
2012-04-11 06:34:46 51°13.636 2°56.019 16.2943 3.6572 24.660068 -2.458615
2012-04-11 06:34:50 51°13.636 2°56.019 16.2931 3.657821 24.66471 -2.458615
2012-04-11 06:34:56 51°13.636 2°56.019 16.2923 3.65751 24.662814 -2.458615
2012-04-11 06:35:01 51°13.636 2°56.018 16.2901 3.657925 24.665909 -2.458615
2012-04-11 06:35:06 51°13.636 2°56.019 16.2911 3.656164 24.652758 -2.458615
2012-04-11 06:35:10 51°13.636 2°56.019 16.2924 3.657303 24.661693 -2.458615
2012-04-11 06:35:16 51°13.636 2°56.019 16.2932 3.657303 24.661693 -2.458615
2012-04-11 06:35:20 51°13.636 2°56.019 16.2922 3.6572 24.660919 -2.458615
2012-04-11 06:35:25 51°13.636 2°56.018 16.2896 3.657718 24.664787 -2.458615
2012-04-11 06:35:30 51°13.636 2°56.018 16.2891 3.657614 24.664014 -2.458615
2012-04-11 06:35:36 51°13.636 2°56.018 16.2844 3.65865 24.672175 -2.458615
2012-04-11 06:35:41 51°13.636 2°56.019 16.2857 3.654404 24.640458 -2.458615
2012-04-11 06:35:46 51°13.636 2°56.018 16.2866 3.654404 24.640458 -2.458615
2012-04-11 06:35:51 51°13.636 2°56.018 16.2894 3.655129 24.646298 -2.458615
2012-04-11 06:35:56 51°13.637 2°56.018 16.2909 3.653679 24.635469 -2.458615
2012-04-11 06:36:01 51°13.637 2°56.018 16.2903 3.655336 24.647845 -2.458615
2012-04-11 06:36:06 51°13.637 2°56.018 16.2921 3.654714 24.643629 -2.458615
2012-04-11 06:36:11 51°13.637 2°56.018 16.2942 3.656268 24.655233 -2.458615
2012-04-11 06:36:15 51°13.637 2°56.018 16.2957 3.656268 24.655233 -2.458615
2012-04-11 06:36:21 51°13.636 2°56.018 16.297 3.654922 24.645176 -2.458615
2012-04-11 06:36:26 51°13.636 2°56.018 16.2981 3.655336 24.648696 -2.458615
2012-04-11 06:36:31 51°13.636 2°56.018 16.2992 3.654818 24.644828 -2.458615
2012-04-11 06:36:35 51°13.636 2°56.018 16.2983 3.653886 24.637866 -2.458615
2012-04-11 06:36:41 51°13.636 2°56.019 16.2969 3.653161 24.632876 -2.458615
2012-04-11 06:36:46 51°13.636 2°56.018 16.3011 3.653161 24.632876 -2.458615
2012-04-11 06:36:51 51°13.636 2°56.019 16.3048 3.656371 24.656858 -2.458615
2012-04-11 06:36:55 51°13.636 2°56.019 16.3045 3.651918 24.624019 -2.458615
2012-04-11 06:37:00 51°13.636 2°56.019 16.3028 3.653575 24.636396 -2.458615
2012-04-11 06:37:06 51°13.636 2°56.019 16.3044 3.653472 24.636047 -2.458615
2012-04-11 06:37:10 51°13.636 2°56.019 16.3043 3.653472 24.636047 -2.458615
2012-04-11 06:37:16 51°13.636 2°56.019 16.3049 3.653472 24.636047 -2.458615
2012-04-11 06:37:20 51°13.636 2°56.018 16.3062 3.652022 24.625643 -2.458615
2012-04-11 06:37:26 51°13.636 2°56.019 16.3069 3.652954 24.632605 -2.458615
2012-04-11 06:37:30 51°13.636 2°56.019 16.3073 3.6543 24.642661 -2.458615
2012-04-11 06:37:35 51°13.636 2°56.019 16.3062 3.653575 24.637246 -2.458615
2012-04-11 06:37:40 51°13.636 2°56.019 16.3062 3.654404 24.64386 -2.458615
2012-04-11 06:37:44 51°13.636 2°56.019 16.3061 3.654404 24.64386 -2.458615
2012-04-11 06:37:51 51°13.636 2°56.019 16.3061 3.651297 24.620653 -2.458615
2012-04-11 06:37:56 51°13.636 2°56.019 16.3058 3.65254 24.63036 -2.458615
2012-04-11 06:38:01 51°13.636 2°56.019 16.3052 3.651918 24.625719 -2.458615
2012-04-11 06:38:05 51°13.636 2°56.02 16.3058 3.652436 24.629587 -2.458615
2012-04-11 06:38:10 51°13.636 2°56.019 16.3068 3.653575 24.638096 -2.458615
2012-04-11 06:38:16 51°13.636 2°56.019 16.3081 3.653575 24.638096 -2.458615
2012-04-11 06:38:20 51°13.636 2°56.019 16.3097 3.652643 24.631559 -2.458615
2012-04-11 06:38:25 51°13.635 2°56.02 16.3104 3.653265 24.636201 -2.458615
2012-04-11 06:38:30 51°13.635 2°56.02 16.3104 3.651918 24.626569 -2.458615
2012-04-11 06:38:35 51°13.636 2°56.019 16.3094 3.651918 24.626569 -2.458615
2012-04-11 06:38:40 51°13.635 2°56.02 16.3092 3.653161 24.635852 -2.458615
2012-04-11 06:38:45 51°13.635 2°56.02 16.308 3.653161 24.635852 -2.458615
2012-04-11 06:38:50 51°13.635 2°56.02 16.3078 3.651711 24.625447 -2.458615
2012-04-11 06:38:55 51°13.635 2°56.02 16.3073 3.652436 24.630862 -2.458615
2012-04-11 06:39:00 51°13.635 2°56.02 16.3033 3.653265 24.637476 -2.458615
2012-04-11 06:39:06 51°13.635 2°56.02 16.3044 3.648708 24.603439 -2.458615
2012-04-11 06:39:10 51°13.635 2°56.02 16.3078 3.650986 24.620882 -2.458615
2012-04-11 06:39:16 51°13.636 2°56.019 16.3083 3.650986 24.620882 -2.458615
2012-04-11 06:39:21 51°13.636 2°56.019 16.3085 3.649951 24.613146 -2.458615
2012-04-11 06:39:26 51°13.635 2°56.02 16.3088 3.649433 24.609278 -2.458615
2012-04-11 06:39:30 51°13.635 2°56.02 16.3116 3.650365 24.616665 -2.458615
2012-04-11 06:39:36 51°13.635 2°56.019 16.3143 3.650054 24.614344 -2.458615
2012-04-11 06:39:41 51°13.635 2°56.02 16.3155 3.649537 24.610901 -2.458615
2012-04-11 06:39:45 51°13.635 2°56.02 16.316 3.649537 24.610901 -2.458615
2012-04-11 06:39:50 51°13.635 2°56.02 16.3174 3.650469 24.617863 -2.458615
2012-04-11 06:39:55 51°13.635 2°56.02 16.3186 3.650779 24.620609 -2.458615
2012-04-11 06:40:01 51°13.636 2°56.019 16.3202 3.650572 24.619062 -2.458615
2012-04-11 06:40:06 51°13.636 2°56.019 16.3222 3.650676 24.62026 -2.458615
2012-04-11 06:40:11 51°13.635 2°56.019 16.3246 3.64964 24.612524 -2.458615
2012-04-11 06:40:15 51°13.635 2°56.02 16.3248 3.64964 24.612524 -2.458615
2012-04-11 06:40:20 51°13.635 2°56.02 16.33 3.648812 24.60676 -2.458615
2012-04-11 06:40:25 51°13.635 2°56.02 16.3304 3.647569 24.597477 -2.458615
2012-04-11 06:40:30 51°13.636 2°56.019 16.3297 3.648087 24.60177 -2.458615
2012-04-11 06:40:35 51°13.636 2°56.018 16.3261 3.649122 24.609506 -2.458615
2012-04-11 06:40:41 51°13.635 2°56.019 16.3235 3.64788 24.600647 -2.458615
2012-04-11 06:40:46 51°13.635 2°56.019 16.3221 3.64788 24.600647 -2.458615
2012-04-11 06:40:50 51°13.635 2°56.019 16.3217 3.647983 24.601421 -2.458615
2012-04-11 06:40:56 51°13.635 2°56.019 16.3206 3.648398 24.60494 -2.458615
2012-04-11 06:41:01 51°13.635 2°56.019 16.3073 3.649847 24.615771 -2.458615
2012-04-11 06:41:06 51°13.635 2°56.019 16.3098 3.646119 24.587921 -2.458615
2012-04-11 06:41:11 51°13.635 2°56.019 16.3089 3.646016 24.587147 -2.458615
2012-04-11 06:41:16 51°13.635 2°56.019 16.3049 3.646016 24.587147 -2.458615
2012-04-11 06:41:21 51°13.635 2°56.019 16.3094 3.645602 24.584478 -2.458615
2012-04-11 06:41:26 51°13.635 2°56.02 16.3113 3.64643 24.591091 -2.458615
2012-04-11 06:41:31 51°13.636 2°56.019 16.3108 3.645394 24.583355 -2.458615
2012-04-11 06:41:36 51°13.636 2°56.019 16.311 3.646016 24.588421 -2.458615
2012-04-11 06:41:40 51°13.636 2°56.019 16.3143 3.646948 24.595383 -2.458615
2012-04-11 06:41:46 51°13.636 2°56.018 16.3152 3.646948 24.595383 -2.458615
2012-04-11 06:41:51 51°13.636 2°56.018 16.3173 3.645705 24.586524 -2.458615
2012-04-11 06:41:55 51°13.636 2°56.018 16.3175 3.645498 24.584977 -2.458615
2012-04-11 06:42:00 51°13.636 2°56.018 16.3192 3.646637 24.593911 -2.458615
2012-04-11 06:42:05 51°13.635 2°56.019 16.3217 3.647051 24.597431 -2.458615
2012-04-11 06:42:10 51°13.636 2°56.018 16.3195 3.645291 24.584279 -2.458615
2012-04-11 06:42:15 51°13.636 2°56.018 16.3202 3.645291 24.584279 -2.458615
2012-04-11 06:42:20 51°13.636 2°56.018 16.3232 3.646948 24.596657 -2.458615
2012-04-11 06:42:25 51°13.636 2°56.018 16.3214 3.645084 24.583156 -2.458615
2012-04-11 06:42:30 51°13.636 2°56.018 16.3187 3.646534 24.593987 -2.458615
2012-04-11 06:42:35 51°13.636 2°56.018 16.3182 3.645395 24.585901 -2.458615
2012-04-11 06:42:40 51°13.636 2°56.017 16.3189 3.645912 24.58977 -2.458615
2012-04-11 06:42:45 51°13.636 2°56.018 16.3217 3.645912 24.58977 -2.458615
2012-04-11 06:42:51 51°13.636 2°56.018 16.3215 3.645084 24.584005 -2.458615
2012-04-11 06:42:56 51°13.635 2°56.018 16.3232 3.64467 24.58091 -2.458615
2012-04-11 06:43:01 51°13.635 2°56.018 16.3262 3.642806 24.56741 -2.458615
2012-04-11 06:43:05 51°13.636 2°56.018 16.3243 3.64467 24.581759 -2.458615
2012-04-11 06:43:10 51°13.636 2°56.018 16.3228 3.644877 24.583307 -2.458615
2012-04-11 06:43:15 51°13.636 2°56.018 16.3221 3.644877 24.583307 -2.458615
2012-04-11 06:43:21 51°13.636 2°56.018 16.3218 3.644773 24.582533 -2.458615
2012-04-11 06:43:25 51°13.636 2°56.018 16.3218 3.646223 24.593789 -2.458615
2012-04-11 06:43:30 51°13.636 2°56.018 16.3199 3.64467 24.582608 -2.458615
2012-04-11 06:43:35 51°13.636 2°56.019 16.3212 3.641667 24.560173 -2.458615
2012-04-11 06:43:40 51°13.636 2°56.018 16.322 3.643013 24.570654 -2.458615
2012-04-11 06:43:45 51°13.636 2°56.018 16.3206 3.643013 24.570654 -2.458615
2012-04-11 06:43:50 51°13.636 2°56.019 16.3197 3.642806 24.569107 -2.458615
2012-04-11 06:43:55 51°13.636 2°56.019 16.3171 3.645084 24.586552 -2.458615
2012-04-11 06:44:01 51°13.636 2°56.019 16.319 3.644359 24.581136 -2.458615
2012-04-11 06:44:04 51°13.636 2°56.018 16.319 3.644359 24.58156 -2.458615
2012-04-11 06:44:10 51°13.636 2°56.019 16.3188 3.644152 24.580013 -2.458615
2012-04-11 06:44:16 51°13.636 2°56.019 16.3195 3.644152 24.580013 -2.458615
2012-04-11 06:44:21 51°13.636 2°56.019 16.3188 3.64322 24.573474 -2.458615
2012-04-11 06:44:25 51°13.636 2°56.019 16.3179 3.643116 24.573125 -2.458615
2012-04-11 06:44:30 51°13.636 2°56.019 16.3177 3.643738 24.577767 -2.458615
2012-04-11 06:44:36 51°13.636 2°56.019 16.3192 3.64177 24.563491 -2.458615
2012-04-11 06:44:41 51°13.636 2°56.019 16.3218 3.641977 24.565463 -2.458615
2012-04-11 06:44:46 51°13.636 2°56.019 16.3191 3.641977 24.565463 -2.458615
2012-04-11 06:44:50 51°13.636 2°56.019 16.315 3.641667 24.563142 -2.458615
2012-04-11 06:44:56 51°13.636 2°56.019 16.3137 3.645188 24.589449 -2.458615
2012-04-11 06:45:01 51°13.636 2°56.019 16.3157 3.64146 24.562018 -2.458615
2012-04-11 06:45:06 51°13.636 2°56.019 16.316 3.641252 24.560471 -2.458615
2012-04-11 06:45:10 51°13.637 2°56.019 16.3158 3.641977 24.566311 -2.458615
2012-04-11 06:45:16 51°13.637 2°56.019 16.3152 3.643116 24.575247 -2.458615
2012-04-11 06:45:21 51°13.637 2°56.019 16.3159 3.643116 24.575247 -2.458615
2012-04-11 06:45:26 51°13.636 2°56.019 16.318 3.643945 24.581437 -2.458615
2012-04-11 06:45:30 51°13.636 2°56.019 16.3204 3.642702 24.572576 -2.458615
2012-04-11 06:45:35 51°13.636 2°56.019 16.322 3.642184 24.568707 -2.458615
2012-04-11 06:45:41 51°13.636 2°56.019 16.3208 3.640735 24.558299 -2.458615
2012-04-11 06:45:46 51°13.636 2°56.019 16.3216 3.640735 24.558299 -2.458615
2012-04-11 06:45:50 51°13.636 2°56.019 16.3206 3.64322 24.576869 -2.458615
2012-04-11 06:45:56 51°13.636 2°56.019 16.3208 3.644463 24.58658 -2.458615
2012-04-11 06:46:01 51°13.636 2°56.019 16.3202 3.642288 24.57033 -2.458615
2012-04-11 06:46:06 51°13.636 2°56.019 16.3215 3.64032 24.556053 -2.458615
2012-04-11 06:46:10 51°13.636 2°56.019 16.3217 3.640631 24.558798 -2.458615
2012-04-11 06:46:16 51°13.636 2°56.019 16.324 3.640631 24.558798 -2.458615
2012-04-11 06:46:20 51°13.636 2°56.019 16.3243 3.640838 24.560345 -2.458615
2012-04-11 06:46:25 51°13.636 2°56.019 16.3248 3.639181 24.547966 -2.458615
2012-04-11 06:46:30 51°13.636 2°56.019 16.3261 3.640528 24.558448 -2.458615
2012-04-11 06:46:35 51°13.636 2°56.019 16.3252 3.64001 24.555004 -2.458615
2012-04-11 06:46:40 51°13.636 2°56.019 16.3289 3.641149 24.563515 -2.458615
2012-04-11 06:46:46 51°13.636 2°56.019 16.3301 3.641149 24.563515 -2.458615
2012-04-11 06:46:51 51°13.637 2°56.019 16.3304 3.641356 24.565912 -2.458615
2012-04-11 06:46:56 51°13.637 2°56.019 16.3306 3.642495 24.574424 -2.458615
2012-04-11 06:47:01 51°13.637 2°56.019 16.333 3.638664 24.545793 -2.458615
2012-04-11 06:47:05 51°13.637 2°56.019 16.3336 3.639181 24.550086 -2.458615
2012-04-11 06:47:11 51°13.637 2°56.019 16.3363 3.639699 24.553955 -2.458615
2012-04-11 06:47:16 51°13.637 2°56.018 16.3392 3.639699 24.553955 -2.458615
2012-04-11 06:47:21 51°13.638 2°56.018 16.3393 3.639285 24.551284 -2.458615
2012-04-11 06:47:26 51°13.637 2°56.019 16.3383 3.638353 24.544744 -2.458615
2012-04-11 06:47:31 51°13.637 2°56.019 16.3392 3.640217 24.558672 -2.458615
2012-04-11 06:47:35 51°13.637 2°56.019 16.3397 3.637628 24.539751 -2.458615
2012-04-11 06:47:41 51°13.637 2°56.019 16.3395 3.637939 24.542073 -2.458615
2012-04-11 06:47:46 51°13.637 2°56.019 16.3395 3.637939 24.542073 -2.458615
2012-04-11 06:47:51 51°13.638 2°56.018 16.338 3.637317 24.537854 -2.458615
2012-04-11 06:47:55 51°13.637 2°56.019 16.3392 3.638871 24.549885 -2.458615
2012-04-11 06:48:01 51°13.638 2°56.019 16.3382 3.640631 24.563041 -2.458615
2012-04-11 06:48:06 51°13.638 2°56.019 16.3389 3.637835 24.542571 -2.458615
2012-04-11 06:48:11 51°13.638 2°56.019 16.338 3.636696 24.534059 -2.458615
2012-04-11 06:48:16 51°13.638 2°56.019 16.3381 3.636696 24.534059 -2.458615
2012-04-11 06:48:21 51°13.638 2°56.019 16.3442 3.635868 24.528293 -2.458615
2012-04-11 06:48:26 51°13.637 2°56.019 16.3416 3.638457 24.548062 -2.458615
2012-04-11 06:48:31 51°13.637 2°56.019 16.3568 3.633693 24.512468 -2.458615
2012-04-11 06:48:36 51°13.637 2°56.019 16.3523 3.637421 24.540747 -2.458615
2012-04-11 06:48:41 51°13.637 2°56.019 16.3525 3.634832 24.521826 -2.458615
2012-04-11 06:48:46 51°13.637 2°56.019 16.3529 3.63359 24.512541 -2.458615
2012-04-11 06:48:51 51°13.637 2°56.019 16.3541 3.63359 24.512541 -2.458615
2012-04-11 06:48:55 51°13.637 2°56.019 16.3558 3.636489 24.534631 -2.458615
2012-04-11 06:49:01 51°13.637 2°56.019 16.3598 3.633175 24.510293 -2.458615
2012-04-11 06:49:06 51°13.637 2°56.019 16.3603 3.636386 24.534281 -2.458615
2012-04-11 06:49:10 51°13.637 2°56.019 16.3625 3.637214 24.540896 -2.458615
2012-04-11 06:49:16 51°13.637 2°56.019 16.3638 3.637214 24.540896 -2.458615
2012-04-11 06:49:21 51°13.637 2°56.019 16.3637 3.634211 24.518878 -2.458615
2012-04-11 06:49:26 51°13.637 2°56.019 16.3619 3.635868 24.531259 -2.458615
2012-04-11 06:49:31 51°13.637 2°56.019 16.3634 3.63535 24.52739 -2.458615
2012-04-11 06:49:36 51°13.637 2°56.019 16.3605 3.633797 24.516206 -2.458615
2012-04-11 06:49:40 51°13.637 2°56.019 16.3592 3.635039 24.525916 -2.458615
2012-04-11 06:49:46 51°13.636 2°56.02 16.3587 3.635039 24.525916 -2.458615
2012-04-11 06:49:50 51°13.636 2°56.02 16.3606 3.63069 24.493417 -2.458615
2012-04-11 06:49:55 51°13.636 2°56.02 16.3605 3.634107 24.519375 -2.458615
2012-04-11 06:50:00 51°13.637 2°56.019 16.3565 3.631829 24.502351 -2.458615
2012-04-11 06:50:05 51°13.636 2°56.02 16.3578 3.631829 24.502775 -2.458615
2012-04-11 06:50:10 51°13.636 2°56.02 16.3592 3.633383 24.514806 -2.458615
2012-04-11 06:50:15 51°13.636 2°56.02 16.3551 3.633383 24.514806 -2.458615
2012-04-11 06:50:20 51°13.637 2°56.02 16.3549 3.631933 24.504395 -2.458615
2012-04-11 06:50:26 51°13.636 2°56.02 16.3591 3.634832 24.526064 -2.458615
2012-04-11 06:50:31 51°13.636 2°56.02 16.3579 3.631726 24.503271 -2.458615
2012-04-11 06:50:35 51°13.636 2°56.02 16.3604 3.631312 24.500599 -2.458615
2012-04-11 06:50:41 51°13.636 2°56.02 16.3614 3.631933 24.505666 -2.458615
2012-04-11 06:50:46 51°13.636 2°56.02 16.3627 3.631933 24.505666 -2.458615
2012-04-11 06:50:51 51°13.636 2°56.02 16.3645 3.632554 24.510309 -2.458615
2012-04-11 06:50:55 51°13.635 2°56.02 16.3658 3.632244 24.507987 -2.458615
2012-04-11 06:51:01 51°13.636 2°56.02 16.3658 3.633486 24.517698 -2.458615
2012-04-11 06:51:06 51°13.636 2°56.02 16.3656 3.632761 24.512704 -2.458615
2012-04-11 06:51:11 51°13.636 2°56.02 16.3668 3.633072 24.51545 -2.458615
2012-04-11 06:51:15 51°13.635 2°56.02 16.3663 3.633072 24.51545 -2.458615
2012-04-11 06:51:21 51°13.635 2°56.02 16.3676 3.631933 24.506936 -2.458615
2012-04-11 06:51:26 51°13.635 2°56.02 16.3688 3.632761 24.513551 -2.458615
2012-04-11 06:51:31 51°13.635 2°56.02 16.3696 3.632244 24.510105 -2.458615
2012-04-11 06:51:35 51°13.635 2°56.019 16.3688 3.631933 24.507784 -2.458615
2012-04-11 06:51:41 51°13.634 2°56.02 16.3676 3.631104 24.501592 -2.458615
2012-04-11 06:51:46 51°13.634 2°56.02 16.3665 3.631104 24.501592 -2.458615
2012-04-11 06:51:50 51°13.634 2°56.019 16.3596 3.634211 24.525235 -2.458615
2012-04-11 06:51:55 51°13.634 2°56.019 16.3404 3.636282 24.540715 -2.458615
2012-04-11 06:52:00 51°13.634 2°56.019 16.2418 3.637732 24.551553 -2.458615
2012-04-11 06:52:05 51°13.635 2°56.018 16.1916 3.630897 24.500468 -2.458615
2012-04-11 06:52:10 51°13.635 2°56.016 16.2629 3.628826 24.485837 -2.458615
2012-04-11 06:52:14 51°13.635 2°56.014 16.2091 3.628826 24.485837 -2.458615
2012-04-11 06:52:20 51°13.636 2°56.011 16.2939 3.619714 24.417328 -2.458615
2012-04-11 06:52:25 51°13.636 2°56.008 16.2989 3.629137 24.488582 -2.458615
2012-04-11 06:52:30 51°13.638 2°56.003 16.2358 3.626341 24.467688 -2.458615
2012-04-11 06:52:34 51°13.638 2°56 16.3387 3.62748 24.4762 -2.458615
2012-04-11 06:52:40 51°13.64 2°55.993 16.2975 3.622717 24.44103 -2.458615
2012-04-11 06:52:45 51°13.641 2°55.987 16.3346 3.622717 24.44103 -2.458615
2012-04-11 06:52:50 51°13.643 2°55.982 16.3043 3.630069 24.496394 -2.458615
2012-04-11 06:52:56 51°13.644 2°55.974 16.3625 3.629551 24.492524 -2.458615
2012-04-11 06:53:01 51°13.646 2°55.967 16.3354 3.623027 24.444196 -2.458615
2012-04-11 06:53:06 51°13.648 2°55.96 16.3396 3.616814 24.397778 -2.458615
2012-04-11 06:53:10 51°13.65 2°55.954 16.3405 3.587511 24.179421 -2.458615
2012-04-11 06:53:16 51°13.652 2°55.945 16.3445 3.587511 24.179421 -2.458615
2012-04-11 06:53:20 51°13.653 2°55.939 16.3151 3.548269 23.887261 -2.458615
2012-04-11 06:53:26 51°13.656 2°55.93 16.3398 3.559348 23.969813 -2.458615
2012-04-11 06:53:31 51°13.657 2°55.922 16.3678 3.544335 23.858777 -2.458615
2012-04-11 06:53:36 51°13.659 2°55.915 16.3771 3.540401 23.829472 -2.458615
2012-04-11 06:53:41 51°13.661 2°55.907 16.3647 3.548787 23.892356 -2.458615
2012-04-11 06:53:46 51°13.663 2°55.899 16.3881 3.548787 23.892356 -2.458615
2012-04-11 06:53:50 51°13.665 2°55.893 16.4045 3.532429 23.770928 -2.458615
2012-04-11 06:53:56 51°13.668 2°55.884 16.3841 3.536156 23.799093 -2.458615
2012-04-11 06:54:01 51°13.671 2°55.876 16.3508 3.545163 23.866184 -2.458615
2012-04-11 06:54:06 51°13.674 2°55.868 16.3639 3.527459 23.73475 -2.458615
2012-04-11 06:54:10 51°13.676 2°55.861 16.3572 3.532946 23.775604 -2.458615
2012-04-11 06:54:15 51°13.679 2°55.853 16.3696 3.532946 23.775604 -2.458615
2012-04-11 06:54:20 51°13.683 2°55.845 16.3662 3.538123 23.814566 -2.458615
2012-04-11 06:54:25 51°13.686 2°55.837 16.3889 3.525699 23.722058 -2.458615
2012-04-11 06:54:30 51°13.689 2°55.829 16.3837 3.528701 23.74482 -2.458615
2012-04-11 06:54:34 51°13.692 2°55.822 16.3963 3.524871 23.716712 -2.458615
2012-04-11 06:54:40 51°13.697 2°55.813 16.3919 3.527252 23.734439 -2.458615
2012-04-11 06:54:45 51°13.701 2°55.805 16.3847 3.527252 23.734439 -2.458615
2012-04-11 06:54:50 51°13.706 2°55.796 16.3901 3.527148 23.734078 -2.458615
2012-04-11 06:54:55 51°13.71 2°55.789 16.386 3.522904 23.702888 -2.458615
2012-04-11 06:55:00 51°13.714 2°55.781 16.3863 3.519487 23.677867 -2.458615
2012-04-11 06:55:05 51°13.719 2°55.774 16.3848 3.523939 23.711005 -2.458615
2012-04-11 06:55:10 51°13.724 2°55.765 16.3795 3.523318 23.706381 -2.458615
2012-04-11 06:55:15 51°13.728 2°55.758 16.379 3.523318 23.706381 -2.458615
2012-04-11 06:55:20 51°13.733 2°55.75 16.3734 3.517313 23.662095 -2.458615
2012-04-11 06:55:25 51°13.737 2°55.743 16.3768 3.519694 23.680227 -2.458615
2012-04-11 06:55:30 51°13.743 2°55.735 16.3674 3.515657 23.650585 -2.458615
2012-04-11 06:55:35 51°13.748 2°55.727 16.386 3.512033 23.62362 -2.458615
2012-04-11 06:55:40 51°13.753 2°55.72 16.3773 3.509445 23.60477 -2.458615
2012-04-11 06:55:45 51°13.758 2°55.713 16.3892 3.509445 23.60477 -2.458615
2012-04-11 06:55:50 51°13.763 2°55.706 16.4066 3.516589 23.657928 -2.458615
2012-04-11 06:55:55 51°13.768 2°55.699 16.4026 3.514414 23.642565 -2.458615
2012-04-11 06:56:00 51°13.774 2°55.692 16.3938 3.514829 23.645647 -2.458615
2012-04-11 06:56:05 51°13.779 2°55.686 16.4004 3.508306 23.597113 -2.458615
2012-04-11 06:56:10 51°13.784 2°55.68 16.4076 3.505822 23.579442 -2.458615
2012-04-11 06:56:15 51°13.789 2°55.673 16.3849 3.505822 23.579442 -2.458615
2012-04-11 06:56:20 51°13.795 2°55.668 16.3896 3.515036 23.648006 -2.458615
2012-04-11 06:56:25 51°13.801 2°55.662 16.3821 3.503648 23.563268 -2.458615
2012-04-11 06:56:30 51°13.806 2°55.656 16.4131 3.505615 23.578309 -2.458615
2012-04-11 06:56:35 51°13.812 2°55.652 16.3904 3.511205 23.620315 -2.458615
2012-04-11 06:56:40 51°13.818 2°55.647 16.4111 3.508203 23.598382 -2.458615
2012-04-11 06:56:45 51°13.824 2°55.643 16.43 3.508203 23.598382 -2.458615
2012-04-11 06:56:50 51°13.83 2°55.64 16.4155 3.505511 23.578354 -2.458615
2012-04-11 06:56:54 51°13.834 2°55.638 16.404 3.503026 23.560276 -2.458615
2012-04-11 06:57:00 51°13.842 2°55.634 16.3781 3.509445 23.608443 -2.458615
2012-04-11 06:57:05 51°13.848 2°55.632 16.3773 3.503026 23.560683 -2.458615
2012-04-11 06:57:10 51°13.854 2°55.63 16.3845 3.50106 23.546457 -2.458615
2012-04-11 06:57:15 51°13.861 2°55.627 16.3929 3.50106 23.546457 -2.458615
2012-04-11 06:57:20 51°13.868 2°55.626 16.3922 3.505097 23.576903 -2.458615
2012-04-11 06:57:25 51°13.874 2°55.625 16.4123 3.496711 23.514926 -2.458615
2012-04-11 06:57:30 51°13.881 2°55.625 16.407 3.509963 23.613519 -2.458615
2012-04-11 06:57:35 51°13.887 2°55.625 16.4093 3.498575 23.529194 -2.458615
2012-04-11 06:57:40 51°13.893 2°55.625 16.4162 3.494952 23.502242 -2.458615
2012-04-11 06:57:45 51°13.9 2°55.626 16.3987 3.499921 23.539613 -2.458615
2012-04-11 06:57:50 51°13.906 2°55.628 16.4091 3.499921 23.539613 -2.458615
2012-04-11 06:57:55 51°13.912 2°55.63 16.4044 3.501163 23.549263 -2.458615
2012-04-11 06:58:00 51°13.918 2°55.632 16.4104 3.497747 23.524254 -2.458615
2012-04-11 06:58:05 51°13.924 2°55.634 16.3919 3.496297 23.513472 -2.458615
2012-04-11 06:58:10 51°13.929 2°55.637 16.432 3.496608 23.516189 -2.458615
2012-04-11 06:58:15 51°13.935 2°55.64 16.4355 3.496608 23.516189 -2.458615
2012-04-11 06:58:21 51°13.941 2°55.643 16.41 3.498471 23.530458 -2.458615
2012-04-11 06:58:25 51°13.944 2°55.646 16.424 3.498989 23.534309 -2.458615
2012-04-11 06:58:31 51°13.95 2°55.65 16.4175 3.497229 23.521623 -2.458615
2012-04-11 06:58:36 51°13.953 2°55.653 16.4106 3.498264 23.530139 -2.458615
2012-04-11 06:58:40 51°13.956 2°55.656 16.4273 3.500749 23.548625 -2.458615
2012-04-11 06:58:45 51°13.96 2°55.66 16.3748 3.500749 23.548625 -2.458615
2012-04-11 06:58:50 51°13.962 2°55.663 16.4172 3.508306 23.605273 -2.458615
2012-04-11 06:58:54 51°13.965 2°55.666 16.4234 3.494227 23.500509 -2.458615
2012-04-11 06:59:00 51°13.968 2°55.669 16.4256 3.490811 23.475504 -2.458615
2012-04-11 06:59:06 51°13.971 2°55.673 16.4431 3.491225 23.47899 -2.458615
2012-04-11 06:59:10 51°13.973 2°55.675 16.4659 3.507271 23.598384 -2.458615
2012-04-11 06:59:14 51°13.975 2°55.676 16.4774 3.507271 23.598384 -2.458615
2012-04-11 06:59:21 51°13.977 2°55.677 16.4763 3.518763 23.683936 -2.458615
2012-04-11 06:59:26 51°13.977 2°55.677 16.4733 3.513172 23.641902 -2.458615
2012-04-11 06:59:31 51°13.977 2°55.677 16.4146 3.515864 23.661942 -2.458615
2012-04-11 06:59:35 51°13.977 2°55.675 16.3669 3.532222 23.783773 -2.458615
2012-04-11 06:59:40 51°13.977 2°55.672 16.2572 3.527977 23.75215 -2.458615
2012-04-11 06:59:45 51°13.978 2°55.668 16.0874 3.525078 23.730968 -2.458615
2012-04-11 06:59:50 51°13.978 2°55.663 16.0046 3.525078 23.730968 -2.458615
2012-04-11 06:59:55 51°13.978 2°55.659 16.1138 3.482011 23.41128 -2.458615
2012-04-11 07:00:00 51°13.981 2°55.652 16.2038 3.435118 23.065322 -2.458615
2012-04-11 07:00:06 51°13.983 2°55.643 16.3112 3.468864 23.317581 -2.458615
2012-04-11 07:00:10 51°13.985 2°55.637 16.3108 3.501163 23.558631 -2.458615
2012-04-11 07:00:15 51°13.989 2°55.627 16.315 3.501163 23.558631 -2.458615
2012-04-11 07:00:20 51°13.993 2°55.617 16.2897 3.507789 23.608361 -2.458615
2012-04-11 07:00:26 51°13.998 2°55.604 16.2589 3.525699 23.741754 -2.458615
2012-04-11 07:00:31 51°14.003 2°55.593 16.2367 3.531911 23.787218 -2.458615
2012-04-11 07:00:35 51°14.008 2°55.583 16.1871 3.536363 23.819573 -2.458615
2012-04-11 07:00:40 51°14.014 2°55.571 16.0768 3.529012 23.763562 -2.458615
2012-04-11 07:00:45 51°14.02 2°55.559 16.0552 3.529012 23.763562 -2.458615
2012-04-11 07:00:51 51°14.029 2°55.544 15.9763 3.511619 23.633611 -2.458615
2012-04-11 07:00:55 51°14.036 2°55.534 16.0258 3.513897 23.651387 -2.458615
2012-04-11 07:01:00 51°14.044 2°55.522 15.9959 3.525078 23.735484 -2.458615
2012-04-11 07:01:05 51°14.052 2°55.509 16.0319 3.527977 23.757081 -2.458615
2012-04-11 07:01:10 51°14.061 2°55.497 16.0362 3.533361 23.797197 -2.458615
2012-04-11 07:01:15 51°14.071 2°55.485 16.0099 3.533361 23.797197 -2.458615
2012-04-11 07:01:20 51°14.081 2°55.473 16.0316 3.536156 23.81803 -2.458615
2012-04-11 07:01:25 51°14.09 2°55.462 16.0472 3.523629 23.724686 -2.458615
2012-04-11 07:01:30 51°14.1 2°55.452 16.0642 3.514001 23.653386 -2.458615
2012-04-11 07:01:35 51°14.111 2°55.441 16.0812 3.518038 23.684274 -2.458615
2012-04-11 07:01:40 51°14.122 2°55.429 16.0794 3.531601 23.785727 -2.458615
2012-04-11 07:01:45 51°14.132 2°55.419 16.0853 3.531601 23.785727 -2.458615
2012-04-11 07:01:50 51°14.142 2°55.408 16.0905 3.511723 23.638471 -2.458615
2012-04-11 07:01:55 51°14.154 2°55.397 16.1696 3.532015 23.789636 -2.458615
2012-04-11 07:01:59 51°14.162 2°55.389 16.1246 3.521869 23.714447 -2.458615
2012-04-11 07:02:04 51°14.173 2°55.378 16.1755 3.534603 23.809339 -2.458615
2012-04-11 07:02:09 51°14.184 2°55.368 16.0728 3.50282 23.572999 -2.458615
2012-04-11 07:02:14 51°14.195 2°55.357 16.1468 3.50282 23.572999 -2.458615
2012-04-11 07:02:19 51°14.206 2°55.347 16.1061 3.521455 23.712183 -2.458615
2012-04-11 07:02:23 51°14.215 2°55.339 16.1055 3.527045 23.754248 -2.458615
2012-04-11 07:02:29 51°14.229 2°55.327 16.15 3.525907 23.745762 -2.458615
2012-04-11 07:02:34 51°14.24 2°55.316 16.1852 3.516382 23.675213 -2.458615
2012-04-11 07:02:39 51°14.251 2°55.306 16.217 3.533879 23.805996 -2.458615
2012-04-11 07:02:43 51°14.26 2°55.298 16.1671 3.533879 23.805996 -2.458615
2012-04-11 07:02:48 51°14.272 2°55.288 16.1914 3.512137 23.644418 -2.458615
2012-04-11 07:02:54 51°14.286 2°55.275 16.2324 3.517107 23.681841 -2.458615
2012-04-11 07:02:59 51°14.297 2°55.265 16.2758 3.528288 23.765973 -2.458615
2012-04-11 07:03:05 51°14.31 2°55.252 16.1761 3.532119 23.794936 -2.458615
2012-04-11 07:03:10 51°14.322 2°55.242 16.2039 3.512344 23.647187 -2.458615
2012-04-11 07:03:15 51°14.334 2°55.231 16.2146 3.511205 23.639115 -2.458615
2012-04-11 07:03:20 51°14.345 2°55.221 16.2361 3.511205 23.639115 -2.458615
2012-04-11 07:03:25 51°14.356 2°55.21 16.2103 3.531911 23.793393 -2.458615
2012-04-11 07:03:30 51°14.368 2°55.199 16.1863 3.501163 23.564746 -2.458615
2012-04-11 07:03:35 51°14.379 2°55.188 16.1913 3.520627 23.709705 -2.458615
2012-04-11 07:03:40 51°14.391 2°55.178 16.1744 3.510481 23.634126 -2.458615
2012-04-11 07:03:45 51°14.402 2°55.167 16.1636 3.510481 23.634126 -2.458615
2012-04-11 07:03:50 51°14.414 2°55.156 16.1365 3.526321 23.752135 -2.458615
2012-04-11 07:03:55 51°14.426 2°55.146 16.1492 3.524147 23.735933 -2.458615
2012-04-11 07:04:00 51°14.439 2°55.136 16.2191 3.486981 23.459998 -2.458615
2012-04-11 07:04:06 51°14.453 2°55.123 16.2212 3.526424 23.754551 -2.458615
2012-04-11 07:04:10 51°14.463 2°55.114 16.1404 3.524043 23.736805 -2.458615
2012-04-11 07:04:15 51°14.477 2°55.104 16.2235 3.524043 23.736805 -2.458615
2012-04-11 07:04:20 51°14.49 2°55.093 16.2188 3.483047 23.43235 -2.458615
2012-04-11 07:04:25 51°14.503 2°55.082 16.2709 3.49547 23.525617 -2.458615
2012-04-11 07:04:30 51°14.516 2°55.07 16.2358 3.530359 23.785934 -2.458615
2012-04-11 07:04:35 51°14.528 2°55.058 16.2264 3.478078 23.396193 -2.458615
2012-04-11 07:04:39 51°14.539 2°55.048 16.146 3.499093 23.553 -2.458615
2012-04-11 07:04:43 51°14.549 2°55.037 16.2545 3.499093 23.553 -2.458615
2012-04-11 07:04:49 51°14.565 2°55.02 16.1499 3.506443 23.606509 -2.458615
2012-04-11 07:04:53 51°14.576 2°55.009 16.1824 3.48843 23.473626 -2.458615
2012-04-11 07:04:58 51°14.589 2°54.994 16.0842 3.521041 23.716074 -2.458615
2012-04-11 07:05:03 51°14.602 2°54.98 16.132 3.516071 23.679046 -2.458615
2012-04-11 07:05:08 51°14.615 2°54.964 16.0632 3.517728 23.692618 -2.458615
2012-04-11 07:05:12 51°14.625 2°54.952 16.1689 3.578917 24.149956 -2.458615
2012-04-11 07:05:17 51°14.639 2°54.937 16.1119 3.578917 24.149956 -2.458615
2012-04-11 07:05:22 51°14.653 2°54.92 15.9809 3.534293 23.815677 -2.458615
2012-04-11 07:05:27 51°14.667 2°54.903 16.0011 3.529323 23.779039 -2.458615
2012-04-11 07:05:31 51°14.678 2°54.89 16.0359 3.513483 23.661401 -2.458615
2012-04-11 07:05:37 51°14.694 2°54.87 16.0837 3.546303 23.906902 -2.458615
2012-04-11 07:05:42 51°14.709 2°54.853 16.024 3.546303 23.906902 -2.458615
2012-04-11 07:05:47 51°14.723 2°54.836 15.8738 3.558831 24.000802 -2.458615
2012-04-11 07:05:52 51°14.737 2°54.819 15.9543 3.513276 23.661087 -2.458615
2012-04-11 07:05:57 51°14.751 2°54.803 16.0111 3.497023 23.544104 -2.458615
2012-04-11 07:06:02 51°14.766 2°54.787 16.1027 3.579953 24.163966 -2.458615
2012-04-11 07:06:07 51°14.781 2°54.771 16.0169 3.566803 24.064069 -2.458615
2012-04-11 07:06:11 51°14.793 2°54.758 16.0317 3.566803 24.064069 -2.458615
2012-04-11 07:06:17 51°14.81 2°54.738 16.07 3.502302 23.581794 -2.458615
2012-04-11 07:06:22 51°14.825 2°54.721 16.0233 3.550755 23.94302 -2.458615
2012-04-11 07:06:27 51°14.839 2°54.704 15.8653 3.565664 24.052232 -2.458615
2012-04-11 07:06:32 51°14.853 2°54.687 15.9807 3.503648 23.591001 -2.458615
2012-04-11 07:06:37 51°14.869 2°54.671 16.0564 3.552411 23.954138 -2.458615
2012-04-11 07:06:42 51°14.883 2°54.654 16.0338 3.552411 23.954138 -2.458615
2012-04-11 07:06:47 51°14.898 2°54.638 15.9272 3.532429 23.806315 -2.458615
2012-04-11 07:06:52 51°14.913 2°54.622 16.0497 3.497851 23.549049 -2.458615
2012-04-11 07:06:57 51°14.928 2°54.607 16.1274 3.562869 24.036355 -2.458615
2012-04-11 07:07:02 51°14.943 2°54.591 16.0812 3.583577 24.191047 -2.458615
2012-04-11 07:07:07 51°14.957 2°54.574 16.1183 3.539159 23.859397 -2.458615
2012-04-11 07:07:12 51°14.971 2°54.557 16.0005 3.539159 23.859397 -2.458615
2012-04-11 07:07:17 51°14.985 2°54.54 15.9497 3.571463 24.100536 -2.458615
2012-04-11 07:07:22 51°15 2°54.523 15.928 3.523422 23.742038 -2.458615
2012-04-11 07:07:27 51°15.014 2°54.506 16.0162 3.567424 24.070376 -2.458615
2012-04-11 07:07:32 51°15.029 2°54.489 16.0276 3.538227 23.853272 -2.458615
2012-04-11 07:07:37 51°15.043 2°54.473 16.0212 3.547545 23.921969 -2.458615
2012-04-11 07:07:42 51°15.057 2°54.456 16.0491 3.547545 23.921969 -2.458615
2012-04-11 07:07:47 51°15.072 2°54.439 16.0613 3.532429 23.809613 -2.458615
2012-04-11 07:07:51 51°15.083 2°54.426 16.0703 3.536467 23.839317 -2.458615
2012-04-11 07:07:57 51°15.1 2°54.404 16.0936 3.532843 23.812702 -2.458615
2012-04-11 07:08:02 51°15.113 2°54.386 15.943 3.534604 23.826242 -2.458615
2012-04-11 07:08:07 51°15.127 2°54.368 16.0406 3.545371 23.907815 -2.458615
2012-04-11 07:08:11 51°15.138 2°54.354 16.0675 3.545371 23.907815 -2.458615
2012-04-11 07:08:17 51°15.155 2°54.332 16.0468 3.530152 23.794687 -2.458615
2012-04-11 07:08:22 51°15.168 2°54.314 16.0175 3.545682 23.910547 -2.458615
2012-04-11 07:08:27 51°15.182 2°54.295 15.9609 3.59652 24.28906 -2.458615
2012-04-11 07:08:31 51°15.192 2°54.28 16.0057 3.539263 23.860583 -2.458615
2012-04-11 07:08:37 51°15.208 2°54.258 15.9223 3.578296 24.152424 -2.458615
2012-04-11 07:08:42 51°15.222 2°54.24 16.0195 3.578296 24.152424 -2.458615
2012-04-11 07:08:47 51°15.236 2°54.222 15.9713 3.509239 23.638373 -2.458615
2012-04-11 07:08:52 51°15.25 2°54.204 16.0119 3.567114 24.070974 -2.458615
2012-04-11 07:08:57 51°15.264 2°54.186 16.0171 3.53771 23.851889 -2.458615
2012-04-11 07:09:02 51°15.278 2°54.169 16.0651 3.540609 23.874758 -2.458615
2012-04-11 07:09:07 51°15.292 2°54.151 16.0551 3.54154 23.880884 -2.458615
2012-04-11 07:09:12 51°15.305 2°54.133 15.9537 3.54154 23.880884 -2.458615
2012-04-11 07:09:17 51°15.318 2°54.114 15.897 3.547545 23.924869 -2.458615
2012-04-11 07:09:22 51°15.332 2°54.096 15.953 3.522076 23.734881 -2.458615
2012-04-11 07:09:27 51°15.346 2°54.078 15.9071 3.529531 23.791702 -2.458615
2012-04-11 07:09:32 51°15.36 2°54.062 16.0175 3.580471 24.17621 -2.458615
2012-04-11 07:09:37 51°15.375 2°54.045 16.0223 3.525079 23.764264 -2.458615
2012-04-11 07:09:42 51°15.389 2°54.028 15.9554 3.525079 23.764264 -2.458615
2012-04-11 07:09:47 51°15.403 2°54.011 15.9868 3.523422 23.75232 -2.458615
2012-04-11 07:09:52 51°15.418 2°53.995 15.976 3.551169 23.959386 -2.458615
2012-04-11 07:09:57 51°15.431 2°53.979 15.9892 3.520316 23.728334 -2.458615
2012-04-11 07:10:02 51°15.446 2°53.963 16.0367 3.549927 23.94928 -2.458615
2012-04-11 07:10:07 51°15.461 2°53.948 16.0232 3.557796 24.007207 -2.458615
2012-04-11 07:10:12 51°15.475 2°53.931 16.1034 3.557796 24.007207 -2.458615
2012-04-11 07:10:17 51°15.489 2°53.915 16.0646 3.518763 23.715932 -2.458615
2012-04-11 07:10:22 51°15.503 2°53.898 16.0195 3.567321 24.07836 -2.458615
2012-04-11 07:10:27 51°15.516 2°53.881 15.9286 3.550652 23.953446 -2.458615
2012-04-11 07:10:31 51°15.527 2°53.867 16.0425 3.565561 24.065627 -2.458615
2012-04-11 07:10:37 51°15.543 2°53.846 15.962 3.545682 23.917174 -2.458615
2012-04-11 07:10:42 51°15.557 2°53.829 16.0416 3.545682 23.917174 -2.458615
2012-04-11 07:10:47 51°15.57 2°53.811 16.0226 3.548788 23.940777 -2.458615
2012-04-11 07:10:52 51°15.584 2°53.794 15.9685 3.541333 23.884303 -2.458615
2012-04-11 07:10:57 51°15.597 2°53.776 15.952 3.520834 23.731372 -2.458615
2012-04-11 07:11:02 51°15.61 2°53.759 15.9205 3.537399 23.854943 -2.458615
2012-04-11 07:11:07 51°15.624 2°53.741 15.9756 3.525079 23.763852 -2.458615
2012-04-11 07:11:12 51°15.638 2°53.725 15.9905 3.525079 23.763852 -2.458615
2012-04-11 07:11:17 51°15.652 2°53.709 16.045 3.549202 23.945943 -2.458615
2012-04-11 07:11:22 51°15.665 2°53.692 16.0103 3.531601 23.814571 -2.458615
2012-04-11 07:11:27 51°15.679 2°53.675 15.969 3.576122 24.147053 -2.458615
2012-04-11 07:11:32 51°15.692 2°53.657 15.8946 3.552929 23.974606 -2.458615
2012-04-11 07:11:37 51°15.706 2°53.641 15.9072 3.576329 24.150693 -2.458615
2012-04-11 07:11:42 51°15.72 2°53.624 15.9665 3.576329 24.150693 -2.458615
2012-04-11 07:11:47 51°15.734 2°53.608 15.9349 3.565665 24.07224 -2.458615
2012-04-11 07:11:52 51°15.748 2°53.592 16.0133 3.547235 23.934574 -2.458615
2012-04-11 07:11:57 51°15.762 2°53.576 15.922 3.525493 23.771883 -2.458615
2012-04-11 07:12:02 51°15.777 2°53.56 15.993 3.537296 23.859957 -2.458615
2012-04-11 07:12:07 51°15.791 2°53.544 15.9773 3.571566 24.115511 -2.458615
2012-04-11 07:12:12 51°15.805 2°53.529 15.9398 3.528806 23.796189 -2.458615
2012-04-11 07:12:17 51°15.819 2°53.513 15.991 3.528806 23.796189 -2.458615
2012-04-11 07:12:22 51°15.834 2°53.497 15.937 3.570531 24.10819 -2.458615
2012-04-11 07:12:27 51°15.849 2°53.481 15.9876 3.514519 23.690029 -2.458615
2012-04-11 07:12:32 51°15.863 2°53.466 16.0153 3.573637 24.131825 -2.458615
2012-04-11 07:12:37 51°15.878 2°53.45 16.0326 3.570635 24.109382 -2.458615
2012-04-11 07:12:42 51°15.892 2°53.434 15.9867 3.570635 24.109382 -2.458615
2012-04-11 07:12:47 51°15.907 2°53.419 15.9976 3.537606 23.862689 -2.458615
2012-04-11 07:12:51 51°15.918 2°53.406 15.9933 3.545786 23.924165 -2.458615
2012-04-11 07:12:57 51°15.935 2°53.387 15.9316 3.569185 24.099383 -2.458615
2012-04-11 07:13:02 51°15.95 2°53.371 15.9742 3.519281 23.728013 -2.458615
2012-04-11 07:13:07 51°15.965 2°53.355 15.9221 3.527771 23.792587 -2.458615
2012-04-11 07:13:12 51°15.979 2°53.339 15.971 3.527771 23.792587 -2.458615
2012-04-11 07:13:17 51°15.993 2°53.324 15.8887 3.519281 23.729658 -2.458615
2012-04-11 07:13:22 51°16.008 2°53.31 15.9163 3.544336 23.917073 -2.458615
2012-04-11 07:13:27 51°16.023 2°53.295 15.9277 3.529738 23.80768 -2.458615
2012-04-11 07:13:32 51°16.038 2°53.281 15.9378 3.546407 23.932536 -2.458615
2012-04-11 07:13:37 51°16.053 2°53.268 15.946 3.513484 23.687645 -2.458615
2012-04-11 07:13:42 51°16.069 2°53.255 15.9561 3.531084 23.818963 -2.458615
2012-04-11 07:13:47 51°16.085 2°53.242 15.9619 3.531084 23.818963 -2.458615
2012-04-11 07:13:52 51°16.1 2°53.229 15.9623 3.559452 24.031238 -2.458615
2012-04-11 07:13:57 51°16.116 2°53.217 15.9341 3.550445 23.963941 -2.458615
2012-04-11 07:14:02 51°16.131 2°53.205 15.9371 3.538745 23.876155 -2.458615
2012-04-11 07:14:07 51°16.148 2°53.193 15.9185 3.500853 23.593875 -2.458615
2012-04-11 07:14:12 51°16.163 2°53.182 15.9781 3.500853 23.593875 -2.458615
2012-04-11 07:14:17 51°16.179 2°53.171 15.95 3.521145 23.74603 -2.458615
2012-04-11 07:14:22 51°16.195 2°53.159 15.9428 3.572913 24.133937 -2.458615
2012-04-11 07:14:27 51°16.211 2°53.148 15.9579 3.55324 23.987318 -2.458615
2012-04-11 07:14:32 51°16.228 2°53.138 15.9919 3.536985 23.865911 -2.458615
2012-04-11 07:14:37 51°16.244 2°53.127 15.9501 3.536364 23.860859 -2.458615
2012-04-11 07:14:42 51°16.26 2°53.115 16.0003 3.536364 23.860859 -2.458615
2012-04-11 07:14:47 51°16.275 2°53.104 15.976 3.523526 23.765445 -2.458615
2012-04-11 07:14:51 51°16.288 2°53.095 15.9802 3.550134 23.963282 -2.458615
2012-04-11 07:14:57 51°16.307 2°53.081 15.9652 3.575501 24.152455 -2.458615
2012-04-11 07:15:02 51°16.324 2°53.07 15.9765 3.521456 23.749583 -2.458615
2012-04-11 07:15:07 51°16.341 2°53.058 15.973 3.565872 24.081718 -2.458615
2012-04-11 07:15:11 51°16.353 2°53.049 15.9482 3.565872 24.081718 -2.458615
2012-04-11 07:15:17 51°16.372 2°53.035 15.972 3.573948 24.142516 -2.458615
2012-04-11 07:15:22 51°16.388 2°53.023 15.9403 3.532326 23.831541 -2.458615
2012-04-11 07:15:27 51°16.404 2°53.011 15.9688 3.569289 24.107679 -2.458615
2012-04-11 07:15:32 51°16.42 2°52.999 15.8964 3.536157 23.860141 -2.458615
2012-04-11 07:15:37 51°16.436 2°52.987 15.9875 3.584406 24.220312 -2.458615
2012-04-11 07:15:42 51°16.452 2°52.975 15.9693 3.584406 24.220312 -2.458615
2012-04-11 07:15:47 51°16.467 2°52.963 16.003 3.530877 23.821134 -2.458615
2012-04-11 07:15:51 51°16.479 2°52.953 15.9913 3.5667 24.089998 -2.458615
2012-04-11 07:15:57 51°16.498 2°52.938 15.9679 3.55117 23.974758 -2.458615
2012-04-11 07:16:02 51°16.514 2°52.926 15.9988 3.55293 23.988741 -2.458615
2012-04-11 07:16:07 51°16.529 2°52.913 15.9993 3.554586 24.00112 -2.458615
2012-04-11 07:16:12 51°16.545 2°52.899 15.9915 3.554586 24.00112 -2.458615
2012-04-11 07:16:17 51°16.561 2°52.886 16.0375 3.566493 24.090121 -2.458615
2012-04-11 07:16:22 51°16.575 2°52.872 15.9411 3.512449 23.686493 -2.458615
2012-04-11 07:16:27 51°16.591 2°52.858 15.9342 3.498369 23.581484 -2.458615
2012-04-11 07:16:32 51°16.607 2°52.845 15.9804 3.561006 24.050349 -2.458615
2012-04-11 07:16:37 51°16.622 2°52.831 15.8849 3.49371 23.547977 -2.458615
2012-04-11 07:16:42 51°16.638 2°52.818 15.9771 3.49371 23.547977 -2.458615
2012-04-11 07:16:47 51°16.653 2°52.806 15.9626 3.559763 24.041479 -2.458615
2012-04-11 07:16:51 51°16.666 2°52.796 15.9491 3.533258 23.843045 -2.458615
2012-04-11 07:16:57 51°16.685 2°52.781 15.9749 3.545579 23.935064 -2.458615
2012-04-11 07:17:02 51°16.7 2°52.769 15.9426 3.52011 23.744892 -2.458615
2012-04-11 07:17:07 51°16.716 2°52.757 15.9042 3.535122 23.857788 -2.458615
2012-04-11 07:17:11 51°16.729 2°52.748 15.9159 3.535122 23.857788 -2.458615
2012-04-11 07:17:17 51°16.748 2°52.734 15.9593 3.538953 23.88764 -2.458615
2012-04-11 07:17:22 51°16.764 2°52.724 15.9365 3.541852 23.911783 -2.458615
2012-04-11 07:17:27 51°16.78 2°52.713 15.9852 3.542783 23.918744 -2.458615
2012-04-11 07:17:32 51°16.796 2°52.703 15.9945 3.545993 23.94231 -2.458615
2012-04-11 07:17:37 51°16.812 2°52.693 15.9874 3.552205 23.986237 -2.458615
2012-04-11 07:17:42 51°16.828 2°52.682 15.9603 3.552205 23.986237 -2.458615
2012-04-11 07:17:47 51°16.844 2°52.672 15.9864 3.580575 24.19753 -2.458615
2012-04-11 07:17:51 51°16.857 2°52.663 15.9168 3.543819 23.92233 -2.458615
2012-04-11 07:17:57 51°16.877 2°52.651 15.9672 3.54444 23.927801 -2.458615
2012-04-11 07:18:02 51°16.893 2°52.641 15.9581 3.562869 24.066786 -2.458615
2012-04-11 07:18:07 51°16.909 2°52.63 15.9308 3.535225 23.862286 -2.458615
2012-04-11 07:18:12 51°16.926 2°52.62 15.9716 3.535225 23.862286 -2.458615
2012-04-11 07:18:17 51°16.942 2°52.61 15.9567 3.584613 24.231947 -2.458615
2012-04-11 07:18:22 51°16.958 2°52.599 15.9439 3.532119 23.839502 -2.458615
2012-04-11 07:18:27 51°16.974 2°52.589 15.9778 3.574466 24.156441 -2.458615
2012-04-11 07:18:32 51°16.991 2°52.579 15.9595 3.55469 24.008972 -2.458615
2012-04-11 07:18:37 51°17.007 2°52.569 15.9863 3.548478 23.962956 -2.458615
2012-04-11 07:18:42 51°17.023 2°52.558 15.9408 3.548478 23.962956 -2.458615
2012-04-11 07:18:47 51°17.039 2°52.548 15.9098 3.58161 24.211156 -2.458615
2012-04-11 07:18:52 51°17.055 2°52.537 15.9668 3.480253 23.453773 -2.458615
2012-04-11 07:18:57 51°17.071 2°52.526 15.9689 3.604597 24.383681 -2.458615
2012-04-11 07:19:02 51°17.087 2°52.515 15.996 3.561731 24.062444 -2.458615
2012-04-11 07:19:07 51°17.103 2°52.503 16.0196 3.595175 24.311848 -2.458615
2012-04-11 07:19:11 51°17.116 2°52.494 15.9338 3.595175 24.311848 -2.458615
2012-04-11 07:19:17 51°17.134 2°52.479 15.9767 3.548271 23.960162 -2.458615
2012-04-11 07:19:22 51°17.15 2°52.466 15.8995 3.582749 24.217999 -2.458615
2012-04-11 07:19:27 51°17.165 2°52.453 15.973 3.527771 23.807857 -2.458615
2012-04-11 07:19:32 51°17.18 2°52.44 15.9153 3.540816 23.906121 -2.458615
2012-04-11 07:19:37 51°17.196 2°52.427 15.9921 3.543301 23.926347 -2.458615
2012-04-11 07:19:42 51°17.211 2°52.414 15.9692 3.543301 23.926347 -2.458615
2012-04-11 07:19:47 51°17.226 2°52.4 15.9299 3.507065 23.656179 -2.458615
2012-04-11 07:19:51 51°17.239 2°52.389 15.9918 3.563077 24.074598 -2.458615
2012-04-11 07:19:57 51°17.257 2°52.373 16.0091 3.583681 24.229176 -2.458615
2012-04-11 07:20:02 51°17.272 2°52.359 15.9336 3.508515 23.666584 -2.458615
2012-04-11 07:20:07 51°17.287 2°52.345 15.9208 3.574984 24.163249 -2.458615
2012-04-11 07:20:12 51°17.302 2°52.331 15.9994 3.574984 24.163249 -2.458615
2012-04-11 07:20:17 51°17.318 2°52.318 15.959 3.599731 24.348498 -2.458615
2012-04-11 07:20:22 51°17.333 2°52.303 15.967 3.526839 23.802963 -2.458615
2012-04-11 07:20:27 51°17.348 2°52.29 15.9358 3.53212 23.842811 -2.458615
2012-04-11 07:20:31 51°17.36 2°52.278 15.9252 3.563284 24.076564 -2.458615
2012-04-11 07:20:37 51°17.379 2°52.263 15.9164 3.533155 23.851785 -2.458615
2012-04-11 07:20:42 51°17.394 2°52.249 15.9712 3.533155 23.851785 -2.458615
2012-04-11 07:20:47 51°17.409 2°52.236 15.9232 3.605322 24.392497 -2.458615
2012-04-11 07:20:52 51°17.425 2°52.222 15.9746 3.540299 23.907231 -2.458615
2012-04-11 07:20:57 51°17.441 2°52.21 15.9551 3.574466 24.163149 -2.458615
2012-04-11 07:21:02 51°17.456 2°52.196 15.9452 3.555518 24.022249 -2.458615
2012-04-11 07:21:07 51°17.471 2°52.183 15.9326 3.59269 24.300832 -2.458615
2012-04-11 07:21:12 51°17.487 2°52.17 15.972 3.59269 24.300832 -2.458615
2012-04-11 07:21:17 51°17.503 2°52.157 15.9145 3.544337 23.939068 -2.458615
2012-04-11 07:21:22 51°17.518 2°52.144 15.9554 3.557693 24.038508 -2.458615
2012-04-11 07:21:27 51°17.533 2°52.131 15.943 3.592586 24.299213 -2.458615
2012-04-11 07:21:32 51°17.549 2°52.118 15.9624 3.542784 23.926215 -2.458615
2012-04-11 07:21:37 51°17.564 2°52.105 15.9622 3.550652 23.985032 -2.458615
2012-04-11 07:21:42 51°17.58 2°52.092 15.9552 3.550652 23.985032 -2.458615
2012-04-11 07:21:47 51°17.595 2°52.079 15.9265 3.595382 24.318884 -2.458615
2012-04-11 07:21:52 51°17.612 2°52.067 15.9678 3.58627 24.251499 -2.458615
2012-04-11 07:21:57 51°17.628 2°52.055 15.9148 3.599834 24.354345 -2.458615
2012-04-11 07:22:02 51°17.643 2°52.042 15.9107 3.588548 24.271081 -2.458615
2012-04-11 07:22:07 51°17.659 2°52.03 15.953 3.555622 24.025525 -2.458615
2012-04-11 07:22:11 51°17.672 2°52.021 15.9261 3.555622 24.025525 -2.458615
2012-04-11 07:22:17 51°17.69 2°52.007 15.9317 3.589376 24.278127 -2.458615
2012-04-11 07:22:22 51°17.706 2°51.996 15.8974 3.568254 24.119596 -2.458615
2012-04-11 07:22:27 51°17.722 2°51.985 15.9587 3.56142 24.068891 -2.458615
2012-04-11 07:22:32 51°17.738 2°51.974 15.9086 3.577365 24.187363 -2.458615
2012-04-11 07:22:37 51°17.754 2°51.964 15.8562 3.577883 24.191238 -2.458615
2012-04-11 07:22:42 51°17.77 2°51.954 15.9155 3.577883 24.191238 -2.458615
2012-04-11 07:22:47 51°17.786 2°51.944 15.9299 3.464621 23.345811 -2.458615
2012-04-11 07:22:52 51°17.802 2°51.935 15.9892 3.497334 23.592583 -2.458615
2012-04-11 07:22:57 51°17.819 2°51.926 15.883 3.38761 22.77447 -2.458615
2012-04-11 07:23:02 51°17.835 2°51.917 15.9579 3.490709 23.541925 -2.458615
2012-04-11 07:23:07 51°17.852 2°51.907 15.8863 3.452924 23.260288 -2.458615
2012-04-11 07:23:12 51°17.868 2°51.897 15.9401 3.452924 23.260288 -2.458615
2012-04-11 07:23:17 51°17.884 2°51.887 15.9656 3.418455 23.005333 -2.458615
2012-04-11 07:23:22 51°17.901 2°51.878 15.9514 3.452303 23.25768 -2.458615
2012-04-11 07:23:27 51°17.918 2°51.868 15.9332 3.424044 23.047713 -2.458615
2012-04-11 07:23:32 51°17.933 2°51.858 15.9535 3.424148 23.049283 -2.458615
2012-04-11 07:23:37 51°17.95 2°51.848 15.9108 3.461205 23.325621 -2.458615
2012-04-11 07:23:42 51°17.966 2°51.838 15.9605 3.461205 23.325621 -2.458615
2012-04-11 07:23:47 51°17.982 2°51.828 15.9631 3.434085 23.123234 -2.458615
2012-04-11 07:23:51 51°17.996 2°51.82 15.942 3.482737 23.484919 -2.458615
2012-04-11 07:23:57 51°18.015 2°51.808 15.9511 3.454063 23.271596 -2.458615
2012-04-11 07:24:02 51°18.031 2°51.797 15.944 3.404067 22.899143 -2.458615
2012-04-11 07:24:07 51°18.047 2°51.786 15.953 3.447438 23.222251 -2.458615
2012-04-11 07:24:11 51°18.06 2°51.778 15.961 3.447438 23.222251 -2.458615
2012-04-11 07:24:17 51°18.08 2°51.765 15.9734 3.492262 23.555962 -2.458615
2012-04-11 07:24:22 51°18.096 2°51.754 15.9542 3.414314 22.974539 -2.458615
2012-04-11 07:24:27 51°18.112 2°51.744 15.9704 3.451061 23.247621 -2.458615
2012-04-11 07:24:32 51°18.128 2°51.733 15.9266 3.459549 23.310852 -2.458615
2012-04-11 07:24:37 51°18.144 2°51.721 15.8737 3.496299 23.584858 -2.458615
2012-04-11 07:24:42 51°18.161 2°51.71 15.9728 3.473317 23.415083 -2.458615
2012-04-11 07:24:47 51°18.177 2°51.699 15.9464 3.473317 23.415083 -2.458615
2012-04-11 07:24:52 51°18.193 2°51.687 15.9813 3.416385 22.991132 -2.458615
2012-04-11 07:24:57 51°18.209 2°51.675 15.9556 3.471454 23.402817 -2.458615
2012-04-11 07:25:02 51°18.224 2°51.663 15.9533 3.455616 23.286396 -2.458615
2012-04-11 07:25:07 51°18.24 2°51.65 15.9842 3.478286 23.455795 -2.458615
2012-04-11 07:25:12 51°18.255 2°51.637 15.9425 3.478286 23.455795 -2.458615
2012-04-11 07:25:17 51°18.271 2°51.624 15.9734 3.465657 23.362442 -2.458615
2012-04-11 07:25:22 51°18.286 2°51.611 15.893 3.475491 23.436171 -2.458615
2012-04-11 07:25:27 51°18.302 2°51.597 15.8833 3.435223 23.136125 -2.458615
2012-04-11 07:25:32 51°18.317 2°51.583 15.9612 3.478183 23.455837 -2.458615
2012-04-11 07:25:37 51°18.332 2°51.57 15.9043 3.45075 23.250553 -2.458615
2012-04-11 07:25:42 51°18.347 2°51.556 15.9278 3.45075 23.250553 -2.458615
2012-04-11 07:25:47 51°18.363 2°51.544 15.8915 3.555001 24.029221 -2.458615
2012-04-11 07:25:52 51°18.379 2°51.53 15.9291 3.469901 23.392865 -2.458615
2012-04-11 07:25:57 51°18.395 2°51.517 15.935 3.502511 23.637365 -2.458615
2012-04-11 07:26:02 51°18.41 2°51.505 15.9657 3.46576 23.364431 -2.458615
2012-04-11 07:26:07 51°18.426 2°51.493 15.9763 3.447541 23.229471 -2.458615
2012-04-11 07:26:11 51°18.439 2°51.483 15.9411 3.447541 23.229471 -2.458615
2012-04-11 07:26:17 51°18.458 2°51.467 15.9345 3.46545 23.362116 -2.458615
2012-04-11 07:26:22 51°18.473 2°51.454 15.9349 3.477665 23.453198 -2.458615
2012-04-11 07:26:27 51°18.489 2°51.442 15.8861 3.443194 23.195879 -2.458615
2012-04-11 07:26:32 51°18.505 2°51.429 15.9045 3.48574 23.513023 -2.458615
2012-04-11 07:26:37 51°18.52 2°51.417 15.9074 3.489259 23.539693 -2.458615
2012-04-11 07:26:42 51°18.536 2°51.406 15.9264 3.489259 23.539693 -2.458615
2012-04-11 07:26:47 51°18.553 2°51.395 15.9407 3.503442 23.647195 -2.458615
2012-04-11 07:26:51 51°18.566 2°51.386 15.9284 3.477354 23.452918 -2.458615
2012-04-11 07:26:57 51°18.585 2°51.373 15.982 3.545579 23.964576 -2.458615
2012-04-11 07:27:02 51°18.601 2°51.362 15.945 3.505927 23.66698 -2.458615
2012-04-11 07:27:07 51°18.618 2°51.35 15.9699 3.486154 23.519379 -2.458615
2012-04-11 07:27:12 51°18.633 2°51.339 15.9674 3.486154 23.519379 -2.458615
2012-04-11 07:27:17 51°18.649 2°51.327 15.9771 3.497748 23.605096 -2.458615
2012-04-11 07:27:22 51°18.665 2°51.314 15.945 3.483462 23.496848 -2.458615
2012-04-11 07:27:27 51°18.68 2°51.301 15.9666 3.477147 23.450152 -2.458615
2012-04-11 07:27:32 51°18.696 2°51.288 15.8945 3.480046 23.47218 -2.458615
2012-04-11 07:27:37 51°18.712 2°51.276 15.9575 3.457168 23.303223 -2.458615
2012-04-11 07:27:42 51°18.728 2°51.263 15.9352 3.457168 23.303223 -2.458615
2012-04-11 07:27:47 51°18.744 2°51.25 15.9466 3.385126 22.767868 -2.458615
2012-04-11 07:27:52 51°18.759 2°51.238 15.9127 3.485015 23.512923 -2.458615
2012-04-11 07:27:57 51°18.775 2°51.225 15.9268 3.41535 22.993009 -2.458615
2012-04-11 07:28:02 51°18.792 2°51.214 15.9128 3.422802 23.04727 -2.458615
2012-04-11 07:28:07 51°18.808 2°51.202 15.9503 3.480253 23.475354 -2.458615
2012-04-11 07:28:12 51°18.824 2°51.191 15.9217 3.476526 23.447962 -2.458615
2012-04-11 07:28:17 51°18.84 2°51.18 15.9181 3.476526 23.447962 -2.458615
2012-04-11 07:28:22 51°18.857 2°51.169 15.9245 3.485533 23.515561 -2.458615
2012-04-11 07:28:27 51°18.873 2°51.159 15.9689 3.436673 23.153345 -2.458615
2012-04-11 07:28:31 51°18.886 2°51.15 15.963 3.468141 23.389083 -2.458615
2012-04-11 07:28:37 51°18.906 2°51.137 15.9663 3.463587 23.35593 -2.458615
2012-04-11 07:28:42 51°18.921 2°51.126 15.9747 3.463587 23.35593 -2.458615
2012-04-11 07:28:47 51°18.937 2°51.115 15.9688 3.476423 23.451262 -2.458615
2012-04-11 07:28:51 51°18.95 2°51.105 15.9697 3.455305 23.292572 -2.458615
2012-04-11 07:28:57 51°18.969 2°51.091 15.9924 3.527565 23.832358 -2.458615
2012-04-11 07:29:02 51°18.985 2°51.078 15.9717 3.493297 23.575962 -2.458615
2012-04-11 07:29:07 51°19 2°51.065 15.9279 3.408001 22.940724 -2.458615
2012-04-11 07:29:12 51°19.016 2°51.051 15.9413 3.408001 22.940724 -2.458615
2012-04-11 07:29:17 51°19.032 2°51.039 15.9061 3.429634 23.103738 -2.458615
2012-04-11 07:29:22 51°19.047 2°51.025 15.9781 3.456133 23.301172 -2.458615
2012-04-11 07:29:27 51°19.062 2°51.012 15.9239 3.461723 23.342036 -2.458615
2012-04-11 07:29:32 51°19.078 2°50.999 15.9472 3.468763 23.395341 -2.458615
2012-04-11 07:29:37 51°19.094 2°50.985 15.9494 3.446299 23.22667 -2.458615
2012-04-11 07:29:42 51°19.109 2°50.971 15.8733 3.446299 23.22667 -2.458615
2012-04-11 07:29:47 51°19.125 2°50.958 15.9064 3.429738 23.10491 -2.458615
2012-04-11 07:29:52 51°19.14 2°50.945 15.9151 3.42539 23.071737 -2.458615
2012-04-11 07:29:57 51°19.156 2°50.933 15.9409 3.511311 23.712539 -2.458615
2012-04-11 07:30:02 51°19.172 2°50.92 15.8767 3.42746 23.087151 -2.458615
2012-04-11 07:30:07 51°19.187 2°50.908 15.937 3.491434 23.564098 -2.458615
2012-04-11 07:30:12 51°19.203 2°50.896 15.9141 3.491434 23.564098 -2.458615
2012-04-11 07:30:17 51°19.22 2°50.885 15.9382 3.442573 23.200919 -2.458615
2012-04-11 07:30:22 51°19.236 2°50.874 15.9333 3.561524 24.089319 -2.458615
2012-04-11 07:30:27 51°19.253 2°50.863 15.9368 3.906843 26.692684 -2.458615
2012-04-11 07:30:31 51°19.265 2°50.854 15.8832 3.906946 26.69347 -2.458615
2012-04-11 07:30:37 51°19.285 2°50.841 15.9736 3.907672 26.699903 -2.458615
2012-04-11 07:30:42 51°19.302 2°50.83 15.9542 3.907672 26.699903 -2.458615
2012-04-11 07:30:47 51°19.318 2°50.819 15.9399 3.906946 26.695328 -2.458615
2012-04-11 07:30:52 51°19.334 2°50.808 15.9677 3.907775 26.702548 -2.458615
2012-04-11 07:30:57 51°19.349 2°50.797 15.9342 3.908397 26.706802 -2.458615
2012-04-11 07:31:02 51°19.366 2°50.786 15.9414 3.906428 26.691397 -2.458615
2012-04-11 07:31:07 51°19.382 2°50.774 15.9547 3.905185 26.681497 -2.458615
2012-04-11 07:31:11 51°19.394 2°50.764 15.9174 3.905185 26.681497 -2.458615
2012-04-11 07:31:17 51°19.414 2°50.751 15.9306 3.907154 26.695972 -2.458615
2012-04-11 07:31:22 51°19.43 2°50.739 15.943 3.903527 26.667989 -2.458615
2012-04-11 07:31:27 51°19.446 2°50.728 15.9715 3.909019 26.710126 -2.458615
2012-04-11 07:31:32 51°19.462 2°50.716 15.9296 3.90591 26.686072 -2.458615
2012-04-11 07:31:37 51°19.478 2°50.704 15.9553 3.910884 26.725676 -2.458615
2012-04-11 07:31:42 51°19.494 2°50.692 15.9169 3.910884 26.725676 -2.458615
2012-04-11 07:31:47 51°19.51 2°50.679 15.9389 3.90446 26.678779 -2.458615
2012-04-11 07:31:52 51°19.526 2°50.666 15.9225 3.906221 26.692147 -2.458615
2012-04-11 07:31:57 51°19.541 2°50.654 15.963 3.908604 26.711629 -2.458615
2012-04-11 07:32:02 51°19.557 2°50.641 15.9246 3.900419 26.647187 -2.458615
2012-04-11 07:32:07 51°19.573 2°50.628 15.9433 3.905289 26.685998 -2.458615
2012-04-11 07:32:12 51°19.589 2°50.616 15.9373 3.905289 26.685998 -2.458615
2012-04-11 07:32:17 51°19.605 2°50.604 15.9607 3.90332 26.671522 -2.458615
2012-04-11 07:32:22 51°19.621 2°50.591 15.9312 3.908915 26.713523 -2.458615
2012-04-11 07:32:27 51°19.636 2°50.578 15.9773 3.904253 26.678599 -2.458615
2012-04-11 07:32:32 51°19.651 2°50.564 15.9057 3.908811 26.713202 -2.458615
2012-04-11 07:32:37 51°19.667 2°50.55 15.9525 3.90187 26.661906 -2.458615
2012-04-11 07:32:42 51°19.683 2°50.537 15.8974 3.90187 26.661906 -2.458615
2012-04-11 07:32:47 51°19.698 2°50.523 15.8751 3.906946 26.700904 -2.458615
2012-04-11 07:32:51 51°19.711 2°50.513 15.9355 3.901041 26.657472 -2.458615
2012-04-11 07:32:57 51°19.73 2°50.497 15.9464 3.90819 26.711737 -2.458615
2012-04-11 07:33:02 51°19.746 2°50.484 15.9489 3.902802 26.670376 -2.458615
2012-04-11 07:33:07 51°19.762 2°50.473 15.9208 3.90446 26.682494 -2.458615
2012-04-11 07:33:12 51°19.778 2°50.46 15.9499 3.90446 26.682494 -2.458615
2012-04-11 07:33:17 51°19.794 2°50.449 15.9677 3.905496 26.689894 -2.458615
2012-04-11 07:33:22 51°19.81 2°50.437 15.9295 3.9056 26.690216 -2.458615
2012-04-11 07:33:27 51°19.825 2°50.424 15.9229 3.898036 26.633742 -2.458615
2012-04-11 07:33:31 51°19.839 2°50.415 15.9638 3.906532 26.700082 -2.458615
2012-04-11 07:33:37 51°19.858 2°50.401 15.9373 3.904771 26.68764 -2.458615
2012-04-11 07:33:42 51°19.874 2°50.389 15.9146 3.904771 26.68764 -2.458615
2012-04-11 07:33:47 51°19.89 2°50.378 15.9338 3.901248 26.661365 -2.458615
2012-04-11 07:33:52 51°19.907 2°50.367 15.9518 3.902802 26.673162 -2.458615
2012-04-11 07:33:57 51°19.923 2°50.355 15.9661 3.902802 26.672697 -2.458615
2012-04-11 07:34:02 51°19.939 2°50.345 15.9338 3.902698 26.670982 -2.458615
2012-04-11 07:34:07 51°19.956 2°50.334 15.9389 3.903838 26.680562 -2.458615
2012-04-11 07:34:12 51°19.972 2°50.323 15.9549 3.903838 26.680562 -2.458615
2012-04-11 07:34:17 51°19.988 2°50.311 15.9058 3.902491 26.668945 -2.458615
2012-04-11 07:34:22 51°20.004 2°50.3 15.9338 3.901455 26.662009 -2.458615
2012-04-11 07:34:27 51°20.02 2°50.288 15.9135 3.904667 26.688248 -2.458615
2012-04-11 07:34:32 51°20.037 2°50.277 15.9552 3.904874 26.69075 -2.458615
2012-04-11 07:34:37 51°20.053 2°50.265 15.9542 3.900108 26.655499 -2.458615
2012-04-11 07:34:42 51°20.069 2°50.254 15.9741 3.900108 26.655499 -2.458615
2012-04-11 07:34:47 51°20.085 2°50.242 15.9304 3.905496 26.697794 -2.458615
2012-04-11 07:34:51 51°20.098 2°50.233 15.9289 3.900005 26.656105 -2.458615
2012-04-11 07:34:57 51°20.117 2°50.219 15.9057 3.902077 26.670907 -2.458615
2012-04-11 07:35:02 51°20.134 2°50.207 15.9796 3.904149 26.687568 -2.458615
2012-04-11 07:35:07 51°20.149 2°50.196 15.9481 3.898658 26.644025 -2.458615
2012-04-11 07:35:11 51°20.161 2°50.185 15.955 3.898658 26.644025 -2.458615
2012-04-11 07:35:17 51°20.181 2°50.172 15.964 3.904978 26.692466 -2.458615
2012-04-11 07:35:22 51°20.198 2°50.159 15.9835 3.903009 26.677057 -2.458615
2012-04-11 07:35:27 51°20.213 2°50.146 15.949 3.904253 26.686495 -2.458615
2012-04-11 07:35:32 51°20.229 2°50.133 15.9512 3.896689 26.630011 -2.458615
2012-04-11 07:35:37 51°20.244 2°50.119 16.0324 3.906325 26.705948 -2.458615
2012-04-11 07:35:42 51°20.26 2°50.106 15.9762 3.906325 26.705948 -2.458615
2012-04-11 07:35:47 51°20.274 2°50.09 15.9902 3.912023 26.735258 -2.458615
2012-04-11 07:35:51 51°20.286 2°50.078 16.014 3.731356 25.352276 -2.458615
2012-04-11 07:35:57 51°20.303 2°50.058 16.0065 3.439881 23.157545 -2.458615
2012-04-11 07:36:02 51°20.317 2°50.041 15.9946 3.095926 20.604003 -2.458615
2012-04-11 07:36:07 51°20.331 2°50.024 16.0079 2.247211 14.490895 -2.458615
2012-04-11 07:36:12 51°20.345 2°50.006 16.0278 2.247211 14.490895 -2.458615
2012-04-11 07:36:17 51°20.358 2°49.988 16.0108 2.035984 13.004801 -2.458615
2012-04-11 07:36:22 51°20.371 2°49.968 15.9865 2.000891 12.756693 -2.458615
2012-04-11 07:36:27 51°20.384 2°49.949 16.0076 1.966007 12.51023 -2.458615
2012-04-11 07:36:32 51°20.397 2°49.93 15.9731 1.954449 12.427558 -2.458615
2012-04-11 07:36:37 51°20.411 2°49.911 16.0045 1.941755 12.337755 -2.458615
2012-04-11 07:36:42 51°20.424 2°49.891 15.9804 1.941755 12.337755 -2.458615
2012-04-11 07:36:47 51°20.436 2°49.872 15.9863 1.934531 12.282701 -2.458615
2012-04-11 07:36:52 51°20.449 2°49.851 15.9372 1.929887 12.246593 -2.458615
2012-04-11 07:36:57 51°20.463 2°49.832 15.9993 1.92772 12.229936 -2.458615
2012-04-11 07:37:02 51°20.475 2°49.812 15.984 1.925759 12.214501 -2.458615
2012-04-11 07:37:07 51°20.489 2°49.792 15.9836 1.924108 12.202049 -2.458615
2012-04-11 07:37:12 51°20.502 2°49.772 15.9417 1.924108 12.202049 -2.458615
2012-04-11 07:37:17 51°20.515 2°49.753 15.9925 1.92256 12.190731 -2.458615
2012-04-11 07:37:22 51°20.528 2°49.733 15.9654 1.923076 12.194503 -2.458615
2012-04-11 07:37:27 51°20.541 2°49.714 15.9776 1.921219 12.181677 -2.458615
2012-04-11 07:37:31 51°20.552 2°49.698 15.9912 1.920806 12.179246 -2.458615
2012-04-11 07:37:37 51°20.568 2°49.675 16.0037 1.920393 12.17786 -2.458615
2012-04-11 07:37:42 51°20.582 2°49.655 15.9709 1.920393 12.17786 -2.458615
2012-04-11 07:37:47 51°20.595 2°49.635 15.9982 1.919774 12.174631 -2.458615
2012-04-11 07:37:52 51°20.608 2°49.615 15.9941 1.919052 12.17027 -2.458615
2012-04-11 07:37:57 51°20.621 2°49.595 15.9804 1.919155 12.172656 -2.458615
2012-04-11 07:38:02 51°20.635 2°49.576 15.9499 1.918949 12.173532 -2.458615
2012-04-11 07:38:07 51°20.648 2°49.556 15.9521 1.919362 12.177011 -2.458615
2012-04-11 07:38:11 51°20.659 2°49.541 15.9857 1.919362 12.177011 -2.458615
2012-04-11 07:38:17 51°20.675 2°49.518 15.988 1.907082 12.089712 -2.458615
2012-04-11 07:38:22 51°20.69 2°49.5 15.9931 1.876848 11.878965 -2.458615
2012-04-11 07:38:27 51°20.704 2°49.482 15.9855 1.906875 12.082681 -2.458615
2012-04-11 07:38:32 51°20.718 2°49.464 15.9906 1.831243 11.561831 -2.458615
2012-04-11 07:38:37 51°20.733 2°49.447 15.9715 1.850537 11.693025 -2.458615
2012-04-11 07:38:42 51°20.747 2°49.429 15.9877 1.850537 11.693025 -2.458615
2012-04-11 07:38:47 51°20.761 2°49.412 15.9835 1.761295 11.079908 -2.458615
2012-04-11 07:38:52 51°20.776 2°49.394 15.9987 1.784919 11.241965 -2.458615
2012-04-11 07:38:57 51°20.791 2°49.377 15.9691 1.771302 11.150465 -2.458615
2012-04-11 07:39:02 51°20.806 2°49.36 15.9616 1.658971 10.385198 -2.458615
2012-04-11 07:39:07 51°20.821 2°49.343 15.989 1.624009 10.14885 -2.458615
2012-04-11 07:39:12 51°20.835 2°49.326 15.9948 1.624009 10.14885 -2.458615
2012-04-11 07:39:17 51°20.851 2°49.31 15.9861 1.666501 10.438359 -2.458615
2012-04-11 07:39:22 51°20.865 2°49.293 15.9799 1.741489 10.951121 -2.458615
2012-04-11 07:39:27 51°20.88 2°49.276 15.9755 1.765525 11.116278 -2.458615
2012-04-11 07:39:31 51°20.892 2°49.262 16.0074 1.725707 10.84517 -2.458615
2012-04-11 07:39:37 51°20.91 2°49.242 15.9838 1.709821 10.738033 -2.458615
2012-04-11 07:39:42 51°20.924 2°49.224 15.9863 1.709821 10.738033 -2.458615
2012-04-11 07:39:47 51°20.939 2°49.207 15.9751 1.626175 10.17 -2.458615
2012-04-11 07:39:52 51°20.953 2°49.19 15.9843 1.681456 10.546472 -2.458615
2012-04-11 07:39:57 51°20.968 2°49.173 15.9773 1.577086 9.838483 -2.458615
2012-04-11 07:40:02 51°20.983 2°49.157 15.9898 1.668357 10.459429 -2.458615
2012-04-11 07:40:07 51°20.998 2°49.14 15.9939 1.683932 10.568058 -2.458615
2012-04-11 07:40:11 51°21.01 2°49.127 16.0012 1.683932 10.568058 -2.458615
2012-04-11 07:40:17 51°21.027 2°49.105 15.9847 1.745719 10.991737 -2.458615
2012-04-11 07:40:22 51°21.041 2°49.088 16.0194 1.73365 10.909171 -2.458615
2012-04-11 07:40:27 51°21.054 2°49.071 15.9679 1.642057 10.286707 -2.458615
2012-04-11 07:40:32 51°21.067 2°49.053 15.9995 1.521301 9.468797 -2.458615
2012-04-11 07:40:37 51°21.081 2°49.036 15.9962 1.664129 10.434767 -2.458615
2012-04-11 07:40:42 51°21.094 2°49.018 16.0196 1.646905 10.317018 -2.458615
2012-04-11 07:40:47 51°21.107 2°49.001 15.9913 1.646905 10.317018 -2.458615
2012-04-11 07:40:52 51°21.119 2°48.982 15.9932 1.535427 9.561205 -2.458615
2012-04-11 07:40:57 51°21.132 2°48.964 16.0106 1.574405 9.823715 -2.458615
2012-04-11 07:41:02 51°21.145 2°48.947 15.9972 1.483255 9.208286 -2.458615
2012-04-11 07:41:07 51°21.158 2°48.929 15.9951 1.525425 9.493042 -2.458615
2012-04-11 07:41:12 51°21.17 2°48.911 16.0064 1.525425 9.493042 -2.458615
2012-04-11 07:41:17 51°21.183 2°48.893 15.9958 1.539552 9.588563 -2.458615
2012-04-11 07:41:22 51°21.196 2°48.875 15.9626 1.454284 9.014357 -2.458615
2012-04-11 07:41:27 51°21.209 2°48.858 15.9916 1.318319 8.104843 -2.458615
2012-04-11 07:41:32 51°21.222 2°48.839 15.9699 1.208151 7.375869 -2.458615
2012-04-11 07:41:37 51°21.234 2°48.822 15.9884 1.310073 8.050595 -2.458615
2012-04-11 07:41:42 51°21.247 2°48.804 15.9793 1.310073 8.050595 -2.458615
2012-04-11 07:41:47 51°21.261 2°48.788 15.9933 1.327698 8.168343 -2.458615
2012-04-11 07:41:51 51°21.272 2°48.774 15.9789 1.337077 8.231339 -2.458615
2012-04-11 07:41:57 51°21.288 2°48.754 15.9759 1.288842 7.911399 -2.458615
2012-04-11 07:42:02 51°21.302 2°48.739 15.9603 1.265448 7.757902 -2.458615
2012-04-11 07:42:07 51°21.316 2°48.723 15.995 1.257512 7.705612 -2.458615
2012-04-11 07:42:12 51°21.33 2°48.708 15.9887 1.257512 7.705612 -2.458615
2012-04-11 07:42:17 51°21.344 2°48.694 15.9594 1.29987 7.988994 -2.458615
2012-04-11 07:42:22 51°21.359 2°48.68 15.9398 1.273074 7.814077 -2.458615
2012-04-11 07:42:27 51°21.373 2°48.666 15.9846 1.332027 8.20744 -2.458615
2012-04-11 07:42:31 51°21.385 2°48.655 15.9524 1.196095 7.305204 -2.458615
2012-04-11 07:42:37 51°21.403 2°48.638 15.9736 1.28472 7.89001 -2.458615
2012-04-11 07:42:42 51°21.418 2°48.626 15.9504 1.28472 7.89001 -2.458615
2012-04-11 07:42:47 51°21.433 2°48.614 15.979 1.20877 7.387424 -2.458615
2012-04-11 07:42:52 51°21.448 2°48.602 15.9944 1.254627 7.691659 -2.458615
2012-04-11 07:42:57 51°21.463 2°48.591 15.9687 1.220723 7.470197 -2.458615
2012-04-11 07:43:02 51°21.478 2°48.579 15.9685 1.235047 7.566219 -2.458615
2012-04-11 07:43:07 51°21.494 2°48.568 15.9776 1.15251 7.022176 -2.458615
2012-04-11 07:43:12 51°21.51 2°48.558 15.9894 1.15251 7.022176 -2.458615
2012-04-11 07:43:17 51°21.525 2°48.548 15.9828 1.320896 8.137624 -2.458615
2012-04-11 07:43:22 51°21.542 2°48.539 15.9655 1.208667 7.392078 -2.458615
2012-04-11 07:43:27 51°21.558 2°48.529 15.9917 1.262975 7.74937 -2.458615
2012-04-11 07:43:32 51°21.575 2°48.521 15.9731 1.254421 7.693335 -2.458615
2012-04-11 07:43:37 51°21.591 2°48.512 15.9642 1.223918 7.491827 -2.458615
2012-04-11 07:43:42 51°21.608 2°48.503 15.9521 1.223918 7.491827 -2.458615
2012-04-11 07:43:47 51°21.624 2°48.494 15.9977 1.178681 7.194167 -2.458615
2012-04-11 07:43:52 51°21.642 2°48.487 15.9775 1.26854 7.794587 -2.458615
2012-04-11 07:43:57 51°21.658 2°48.478 15.9909 1.178682 7.202837 -2.458615
2012-04-11 07:44:02 51°21.675 2°48.471 15.9775 1.292965 7.964065 -2.458615
2012-04-11 07:44:07 51°21.691 2°48.462 15.9782 1.166729 7.120482 -2.458615
2012-04-11 07:44:12 51°21.708 2°48.454 15.9568 1.166729 7.120482 -2.458615
2012-04-11 07:44:17 51°21.725 2°48.445 15.9888 1.14128 6.949097 -2.458615
2012-04-11 07:44:22 51°21.742 2°48.437 15.9734 1.249577 7.661772 -2.458615
2012-04-11 07:44:27 51°21.759 2°48.429 15.9871 1.229998 7.531644 -2.458615
2012-04-11 07:44:31 51°21.773 2°48.422 15.9833 1.173942 7.162948 -2.458615
2012-04-11 07:44:37 51°21.794 2°48.412 15.9643 1.179815 7.202254 -2.458615
2012-04-11 07:44:42 51°21.81 2°48.404 15.9666 1.179815 7.202254 -2.458615
2012-04-11 07:44:47 51°21.827 2°48.395 15.9943 1.14468 6.971074 -2.458615
2012-04-11 07:44:52 51°21.844 2°48.387 15.9418 1.189707 7.26696 -2.458615
2012-04-11 07:44:57 51°21.861 2°48.378 15.9712 1.198878 7.328589 -2.458615
2012-04-11 07:45:02 51°21.879 2°48.37 15.9724 1.156735 7.05165 -2.458615
2012-04-11 07:45:07 51°21.895 2°48.361 15.9714 1.146534 6.98398 -2.458615
2012-04-11 07:45:11 51°21.908 2°48.354 15.9674 1.146534 6.98398 -2.458615
2012-04-11 07:45:17 51°21.928 2°48.343 15.9836 1.123868 6.836217 -2.458615
2012-04-11 07:45:22 51°21.945 2°48.334 15.9786 1.195271 7.306926 -2.458615
2012-04-11 07:45:27 51°21.962 2°48.326 15.9858 1.222269 7.486721 -2.458615
2012-04-11 07:45:32 51°21.979 2°48.318 15.9913 1.189089 7.268633 -2.458615
2012-04-11 07:45:37 51°21.995 2°48.307 15.9893 1.146019 6.984197 -2.458615
2012-04-11 07:45:42 51°22.013 2°48.298 15.9506 1.146019 6.984197 -2.458615
2012-04-11 07:45:47 51°22.029 2°48.287 15.9848 1.210728 7.410915 -2.458615
2012-04-11 07:45:52 51°22.046 2°48.278 15.9694 1.154262 7.038775 -2.458615
2012-04-11 07:45:57 51°22.063 2°48.266 15.9946 1.18847 7.264053 -2.458615
2012-04-11 07:46:02 51°22.079 2°48.256 16.0002 1.137365 6.927314 -2.458615
2012-04-11 07:46:07 51°22.096 2°48.245 15.9829 1.173942 7.168617 -2.458615
2012-04-11 07:46:11 51°22.109 2°48.236 15.9459 1.173942 7.168617 -2.458615
2012-04-11 07:46:17 51°22.128 2°48.222 15.979 1.102438 6.698408 -2.458615
2012-04-11 07:46:22 51°22.145 2°48.211 15.9729 1.171263 7.148871 -2.458615
2012-04-11 07:46:27 51°22.162 2°48.199 15.9597 1.143856 6.970092 -2.458615
2012-04-11 07:46:31 51°22.175 2°48.189 15.9791 1.116656 6.791954 -2.458615
2012-04-11 07:46:37 51°22.194 2°48.177 15.957 1.116862 6.794709 -2.458615
2012-04-11 07:46:42 51°22.21 2°48.166 15.9926 1.116862 6.794709 -2.458615
2012-04-11 07:46:47 51°22.227 2°48.156 15.9774 1.150656 7.020728 -2.458615
2012-04-11 07:46:51 51°22.24 2°48.147 15.9778 1.117686 6.805152 -2.458615
2012-04-11 07:46:57 51°22.26 2°48.133 15.9621 1.104808 6.719365 -2.458615
2012-04-11 07:47:02 51°22.277 2°48.122 15.9638 1.08307 6.575704 -2.458615
2012-04-11 07:47:07 51°22.293 2°48.111 15.962 1.051135 6.364925 -2.458615
2012-04-11 07:47:12 51°22.309 2°48.1 15.9835 1.051135 6.364925 -2.458615
2012-04-11 07:47:17 51°22.326 2°48.09 15.9527 1.066278 6.461335 -2.458615
2012-04-11 07:47:22 51°22.343 2°48.081 15.9607 1.002 6.041248 -2.458615
2012-04-11 07:47:27 51°22.36 2°48.072 15.9759 1.045779 6.325636 -2.458615
2012-04-11 07:47:32 51°22.377 2°48.063 15.9819 1.069678 6.481531 -2.458615
2012-04-11 07:47:37 51°22.394 2°48.055 15.9675 1.076168 6.525493 -2.458615
2012-04-11 07:47:42 51°22.41 2°48.047 15.9638 1.076168 6.525493 -2.458615
2012-04-11 07:47:47 51°22.427 2°48.038 15.9767 1.059685 6.420393 -2.458615
2012-04-11 07:47:52 51°22.444 2°48.03 15.9651 1.032593 6.244169 -2.458615
2012-04-11 07:47:57 51°22.461 2°48.022 15.9644 1.036817 6.27028 -2.458615
2012-04-11 07:48:02 51°22.478 2°48.014 15.9594 1.095639 6.652732 -2.458615
2012-04-11 07:48:07 51°22.495 2°48.006 15.987 1.069884 6.485329 -2.458615
2012-04-11 07:48:12 51°22.512 2°47.998 15.9785 1.069884 6.485329 -2.458615
2012-04-11 07:48:17 51°22.529 2°47.989 15.9872 1.067927 6.474214 -2.458615
2012-04-11 07:48:22 51°22.546 2°47.979 15.9807 1.078744 6.546379 -2.458615
2012-04-11 07:48:27 51°22.563 2°47.97 15.9875 1.062982 6.444689 -2.458615
2012-04-11 07:48:31 51°22.576 2°47.963 15.9923 1.059377 6.423017 -2.458615
2012-04-11 07:48:37 51°22.596 2°47.952 16.002 1.062261 6.444304 -2.458615
2012-04-11 07:48:42 51°22.612 2°47.942 15.9595 1.062261 6.444304 -2.458615
2012-04-11 07:48:47 51°22.629 2°47.932 15.9666 1.033212 6.254759 -2.458615
2012-04-11 07:48:52 51°22.646 2°47.922 15.991 1.01673 6.145895 -2.458615
2012-04-11 07:48:57 51°22.662 2°47.911 15.9681 1.032181 6.246536 -2.458615
2012-04-11 07:49:02 51°22.679 2°47.9 15.9655 1.039495 6.294657 -2.458615
2012-04-11 07:49:07 51°22.696 2°47.89 15.9915 1.028782 6.225562 -2.458615
2012-04-11 07:49:11 51°22.709 2°47.881 15.9769 1.028782 6.225562 -2.458615
2012-04-11 07:49:17 51°22.729 2°47.87 15.9876 0.951532 5.722903 -2.458615
2012-04-11 07:49:22 51°22.746 2°47.86 15.986 0.984387 5.935793 -2.458615
2012-04-11 07:49:27 51°22.763 2°47.85 15.9922 1.021263 6.175508 -2.458615
2012-04-11 07:49:32 51°22.78 2°47.84 15.9821 0.99407 5.998861 -2.458615
2012-04-11 07:49:37 51°22.797 2°47.829 15.9552 0.961316 5.786631 -2.458615
2012-04-11 07:49:42 51°22.813 2°47.818 15.9971 0.965436 5.814617 -2.458615
2012-04-11 07:49:47 51°22.83 2°47.808 15.9982 0.965436 5.814617 -2.458615
2012-04-11 07:49:51 51°22.843 2°47.799 15.9743 0.892726 5.346041 -2.458615
2012-04-11 07:49:57 51°22.863 2°47.786 15.958 0.903746 5.416522 -2.458615
2012-04-11 07:50:02 51°22.879 2°47.775 15.973 0.867806 5.18463 -2.458615
2012-04-11 07:50:07 51°22.897 2°47.764 15.9959 0.89942 5.38672 -2.458615
2012-04-11 07:50:12 51°22.915 2°47.754 15.9878 0.89942 5.38672 -2.458615
2012-04-11 07:50:17 51°22.93 2°47.744 15.9909 0.904569 5.421456 -2.458615
2012-04-11 07:50:22 51°22.948 2°47.735 15.9923 0.995615 6.010968 -2.458615
2012-04-11 07:50:27 51°22.965 2°47.725 15.9649 0.965848 5.817186 -2.458615
2012-04-11 07:50:32 51°22.981 2°47.715 15.9872 0.892212 5.340522 -2.458615
2012-04-11 07:50:37 51°22.998 2°47.706 15.9838 0.928977 5.578393 -2.458615
2012-04-11 07:50:42 51°23.016 2°47.697 16.0059 0.928977 5.578393 -2.458615
2012-04-11 07:50:47 51°23.033 2°47.688 15.9966 0.92218 5.536236 -2.458615
2012-04-11 07:50:51 51°23.047 2°47.68 15.963 0.938246 5.640404 -2.458615
2012-04-11 07:50:57 51°23.067 2°47.669 15.9843 0.860083 5.135443 -2.458615
2012-04-11 07:51:02 51°23.084 2°47.66 15.9856 0.77493 4.590626 -2.458615
2012-04-11 07:51:07 51°23.101 2°47.651 15.9912 0.965024 5.810146 -2.458615
2012-04-11 07:51:12 51°23.118 2°47.643 16.0019 0.965024 5.810146 -2.458615
2012-04-11 07:51:17 51°23.136 2°47.634 15.985 0.971822 5.856008 -2.458615
2012-04-11 07:51:22 51°23.153 2°47.625 15.9964 0.926711 5.56549 -2.458615
2012-04-11 07:51:27 51°23.17 2°47.617 16.0033 0.914353 5.486398 -2.458615
2012-04-11 07:51:31 51°23.184 2°47.61 15.9897 0.976663 5.891157 -2.458615
2012-04-11 07:51:37 51°23.204 2°47.6 15.9827 0.855552 5.110529 -2.458615
2012-04-11 07:51:42 51°23.221 2°47.591 16.0055 0.855552 5.110529 -2.458615
2012-04-11 07:51:47 51°23.238 2°47.581 15.9814 0.962243 5.799423 -2.458615
2012-04-11 07:51:52 51°23.254 2°47.572 15.9969 0.786565 4.672928 -2.458615
2012-04-11 07:51:57 51°23.271 2°47.561 15.9858 0.955137 5.754251 -2.458615
2012-04-11 07:52:02 51°23.288 2°47.551 15.9779 0.926299 5.562064 -2.458615
2012-04-11 07:52:07 51°23.305 2°47.54 15.9673 0.806848 4.792814 -2.458615
2012-04-11 07:52:12 51°23.322 2°47.53 15.9955 0.806848 4.792814 -2.458615
2012-04-11 07:52:17 51°23.338 2°47.519 15.9933 0.876456 5.237009 -2.458615
2012-04-11 07:52:22 51°23.355 2°47.508 15.9883 0.808392 4.802575 -2.458615
2012-04-11 07:52:27 51°23.371 2°47.497 15.9907 0.797169 4.732629 -2.458615
2012-04-11 07:52:32 51°23.388 2°47.487 15.9942 0.877074 5.245846 -2.458615
2012-04-11 07:52:37 51°23.405 2°47.477 15.9866 0.930728 5.592683 -2.458615
2012-04-11 07:52:42 51°23.421 2°47.466 15.9734 0.930728 5.592683 -2.458615
2012-04-11 07:52:47 51°23.438 2°47.456 15.9843 0.813438 4.839235 -2.458615
2012-04-11 07:52:52 51°23.455 2°47.446 16.0019 0.863584 5.158786 -2.458615
2012-04-11 07:52:57 51°23.471 2°47.436 15.978 0.867909 5.185023 -2.458615
2012-04-11 07:53:02 51°23.488 2°47.426 15.9899 0.942469 5.665367 -2.458615
2012-04-11 07:53:07 51°23.504 2°47.417 15.9918 0.824352 4.907344 -2.458615